Data for 05/04/2012

Time Sea-Level Adjusted Pressure Absolute Pressure Temperature Relative Humidity Dew Point Precipitation   
(mb) (inHg) (mb) (inHg) (C) (F) (%) (C) (F) (mm) (in)
00:01 1015 29.97 844 24.92 7.3 45.1 76 3.4 38.2 0 0
00:02 1015 29.97 844 24.92 7.3 45.1 78 3.8 38.8 0 0
00:03 1015 29.97 844 24.92 7.2 45 80 4 39.2 0 0
00:04 1015 29.97 845 24.95 7.1 44.7 83 4.3 39.8 0 0
00:05 1015 29.97 845 24.95 6.9 44.4 82 4 39.3 0 0
00:06 1015 29.97 845 24.95 6.9 44.4 82 4 39.2 .2 0.008
00:07 1015 29.97 845 24.95 6.9 44.4 84 4.3 39.8 0 0
00:08 1015 29.97 845 24.95 6.8 44.2 85 4.4 39.9 0 0
00:09 1015 29.97 845 24.95 6.6 44 85 4.3 39.8 .2 0.008
00:10 1015 29.97 845 24.95 6.6 43.8 85 4.2 39.5 0 0
00:11 1015 29.97 845 24.95 6.6 43.8 85 4.2 39.5 0 0
00:12 1015 29.97 845 24.95 6.5 43.7 84 4.1 39.4 0 0
00:13 1015 29.97 845 24.95 6.5 43.8 85 4.2 39.6 0 0
00:14 1015 29.97 844 24.92 6.5 43.6 81 3.4 38.1 0 0
00:15 1015 29.97 844 24.92 6.6 43.8 79 3.1 37.7 0 0
00:16 1015 29.97 844 24.92 6.8 44.2 78 3.3 37.9 0 0
00:17 1015 29.97 844 24.92 6.8 44.3 76 2.8 37.1 0 0
00:18 1015 29.97 844 24.92 6.9 44.4 77 3.2 37.8 0 0
00:19 1015 29.97 844 24.92 6.9 44.5 74 2.5 36.6 0 0
00:20 1015 29.97 844 24.92 7.1 44.7 76 3.1 37.6 .2 0.008
00:21 1015 29.97 844 24.92 7.1 44.7 76 3.2 37.8 0 0
00:22 1015 29.97 844 24.92 7 44.6 79 3.6 38.5 0 0
00:23 1015 29.97 844 24.92 6.9 44.4 80 3.7 38.6 0 0
00:24 1015 29.97 844 24.92 6.8 44.2 82 3.8 38.9 0 0
00:25 1015 29.97 844 24.92 6.7 44 82 3.8 38.8 0 0
00:26 1015 29.97 844 24.92 6.7 44 80 3.5 38.3 0 0
00:27 1015 29.97 844 24.92 6.7 44.1 82 3.9 39 0 0
00:28 1015 29.97 844 24.92 6.6 44 83 3.9 39.1 0 0
00:29 1015 29.97 844 24.92 6.6 43.8 83 4 39.1 0 0
00:30 1015 29.97 844 24.92 6.5 43.7 84 4 39.2 0 0
00:31 1015 29.97 844 24.92 6.5 43.6 83 3.8 38.9 0 0
00:32 1015 29.97 844 24.92 6.5 43.6 82 3.7 38.6 0 0
00:33 1015 29.97 844 24.92 6.5 43.7 82 3.7 38.6 0 0
00:34 1015 29.97 844 24.92 6.5 43.7 83 3.8 38.8 0 0
00:35 1015 29.97 844 24.92 6.5 43.7 82 3.7 38.6 0 0
00:36 1015 29.97 844 24.92 6.5 43.7 83 3.8 38.8 0 0
00:37 1015 29.97 844 24.92 6.5 43.6 83 3.8 38.8 0 0
00:38 1015 29.97 844 24.92 6.4 43.4 82 3.6 38.4 0 0
00:39 1015 29.97 844 24.92 6.4 43.5 81 3.5 38.2 0 0
00:40 1015 29.97 844 24.92 6.4 43.5 81 3.4 38.1 0 0
00:41 1015 29.97 844 24.92 6.4 43.5 81 3.4 38.2 0 0
00:42 1015 29.97 844 24.92 6.4 43.5 81 3.4 38.1 0 0
00:43 1015 29.97 844 24.92 6.4 43.5 81 3.4 38.1 0 0
00:44 1015 29.97 844 24.92 6.3 43.4 82 3.4 38.2 0 0
00:45 1015 29.97 844 24.92 6.2 43.2 82 3.5 38.2 0 0
00:46 1015 29.97 844 24.92 6.2 43.1 81 3.2 37.8 0 0
00:47 1015 29.97 844 24.92 6.2 43.2 81 3.2 37.7 0 0
00:48 1015 29.97 844 24.92 6.2 43.2 82 3.3 38 0 0
00:49 1015 29.97 844 24.92 6.2 43.1 81 3.2 37.8 0 0
00:50 1015 29.97 844 24.92 6.2 43.2 81 3.3 37.9 0 0
00:51 1015 29.97 844 24.92 6.2 43.1 80 3 37.5 0 0
00:52 1015 29.97 844 24.92 6.1 43 81 3.2 37.7 0 0
00:53 1015 29.97 844 24.92 6.1 43 81 3.2 37.7 0 0
00:54 1015 29.97 844 24.92 6.1 42.9 81 3 37.5 0 0
00:55 1015 29.97 844 24.92 6 42.8 81 3 37.3 0 0
00:56 1015 29.97 844 24.92 6 42.8 81 3 37.3 0 0
00:57 1015 29.97 844 24.92 5.9 42.6 81 2.8 37.1 0 0
00:58 1015 29.97 844 24.92 5.9 42.6 81 2.9 37.2 0 0
00:59 1015 29.97 844 24.92 5.9 42.6 81 2.8 37.1 0 0
01:00 1015 29.97 844 24.92 5.9 42.6 81 2.9 37.2 0 0
01:01 1015 29.97 844 24.92 5.8 42.5 81 2.8 37 0 0
01:02 1015 29.97 844 24.92 5.8 42.5 81 2.8 37.1 0 0
01:03 1015 29.97 844 24.92 5.8 42.4 81 2.9 37.1 0 0
01:04 1015 29.97 844 24.92 5.8 42.4 81 2.8 37.1 0 0
01:05 1015 29.97 844 24.92 5.7 42.3 82 2.9 37.1 0 0
01:06 1015 29.97 844 24.92 5.6 42.1 82 2.8 37 0 0
01:07 1015 29.97 844 24.92 5.6 42 82 2.8 37 0 0
01:08 1015 29.97 844 24.92 5.5 41.9 82 2.7 36.9 0 0
01:09 1015 29.97 844 24.92 5.4 41.8 83 2.8 37 0 0
01:10 1015 29.97 844 24.92 5.4 41.6 83 2.8 37 0 0
01:11 1015 29.97 844 24.92 5.3 41.6 84 2.8 37 0 0
01:12 1015 29.97 844 24.92 5.3 41.5 84 2.8 37 0 0
01:13 1015 29.97 844 24.92 5.2 41.4 84 2.8 37 0 0
01:14 1015 29.97 844 24.92 5.2 41.3 85 2.8 37 0 0
01:15 1015 29.97 844 24.92 5.1 41.2 85 2.8 37.1 0 0
01:16 1015 29.97 844 24.92 5 41.1 85 2.8 37 0 0
01:17 1015 29.97 844 24.92 5.1 41.1 85 2.7 36.9 0 0
01:18 1015 29.97 844 24.92 5.1 41.2 85 2.7 36.9 0 0
01:19 1015 29.97 844 24.92 5.1 41.2 85 2.7 36.9 0 0
01:20 1015 29.97 844 24.92 5.1 41.2 85 2.7 36.9 0 0
01:21 1015 29.97 844 24.92 5 41.1 84 2.6 36.6 0 0
01:22 1015 29.97 844 24.92 5 41 84 2.5 36.5 0 0
01:23 1015 29.97 844 24.92 5.1 41.1 83 2.4 36.3 0 0
01:24 1015 29.97 844 24.92 5.1 41.2 81 2.2 35.9 0 0
01:25 1015 29.97 844 24.92 5.3 41.5 80 2.2 35.9 0 0
01:26 1015 29.97 844 24.92 5.4 41.6 79 2.1 35.8 0 0
01:27 1015 29.97 844 24.92 5.4 41.8 78 1.8 35.3 0 0
01:28 1015 29.97 844 24.92 5.6 42 78 2.1 35.7 0 0
01:29 1015 29.97 844 24.92 5.5 42 78 2.1 35.7 0 0
01:30 1015 29.97 844 24.92 5.5 41.9 78 2 35.5 0 0
01:31 1015 29.97 844 24.92 5.5 42 77 1.9 35.4 0 0
01:32 1015 29.97 844 24.92 5.5 41.9 78 1.9 35.5 0 0
01:33 1015 29.97 844 24.92 5.5 41.9 78 2 35.5 0 0
01:34 1015 29.97 844 24.92 5.5 41.9 78 2 35.7 0 0
01:35 1015 29.97 844 24.92 5.4 41.6 79 2 35.7 0 0
01:36 1015 29.97 844 24.92 5.3 41.5 79 2 35.6 0 0
01:37 1015 29.97 844 24.92 5.2 41.4 78 1.8 35.2 0 0
01:38 1015 29.97 844 24.92 5.3 41.5 74 1 33.8 0 0
01:39 1015 29.97 844 24.92 5.6 42 74 1.3 34.3 0 0
01:40 1015 29.97 844 24.92 5.7 42.2 75 1.6 34.9 0 0
01:41 1015 29.97 844 24.92 5.6 42.2 76 1.7 35.1 0 0
01:42 1015 29.97 844 24.92 5.6 42.1 75 1.6 34.8 0 0
01:43 1015 29.97 844 24.92 5.5 42 76 1.6 34.8 0 0
01:44 1015 29.97 844 24.92 5.5 42 74 1.3 34.3 0 0
01:45 1015 29.97 844 24.92 5.6 42.1 71 0.8 33.4 0 0
01:46 1015 29.97 844 24.92 5.9 42.6 69 0.7 33.2 0 0
01:47 1015 29.97 844 24.92 6.1 43 68 0.6 33.1 0 0
01:48 1015 29.97 844 24.92 6.3 43.3 68 0.9 33.6 0 0
01:49 1015 29.97 844 24.92 6.4 43.5 66 0.6 33.1 0 0
01:50 1015 29.97 844 24.92 6.5 43.6 68 1 33.7 0 0
01:51 1015 29.97 844 24.92 6.4 43.6 68 1 33.9 0 0
01:52 1015 29.97 844 24.92 6.4 43.5 70 1.3 34.3 0 0
01:53 1015 29.97 844 24.92 6.3 43.3 69 1 33.8 0 0
01:54 1015 29.97 844 24.92 6.3 43.3 67 0.6 33.1 0 0
01:55 1015 29.97 844 24.92 6.4 43.4 67 0.7 33.3 0 0
01:56 1015 29.97 844 24.92 6.5 43.6 66 0.6 33.1 0 0
01:57 1015 29.97 844 24.92 6.5 43.7 66 0.6 33 0 0
01:58 1015 29.97 844 24.92 6.5 43.8 65 0.5 32.9 0 0
01:59 1015 29.97 844 24.92 6.6 43.9 67 0.8 33.5 0 0
02:00 1015 29.97 844 24.92 6.5 43.8 66 0.7 33.3 0 0
02:01 1015 29.97 844 24.92 6.5 43.7 65 0.5 32.8 0 0
02:02 1015 29.97 844 24.92 6.5 43.7 66 0.6 33 0 0
02:03 1015 29.97 844 24.92 6.6 43.8 66 0.7 33.3 0 0
02:04 1015 29.97 844 24.92 6.5 43.7 68 1 33.8 0 0
02:05 1015 29.97 844 24.92 6.4 43.5 68 0.9 33.6 0 0
02:06 1015 29.97 844 24.92 6.3 43.3 68 0.9 33.7 0 0
02:07 1015 29.97 844 24.92 6.1 43.1 69 1 33.7 0 0
02:08 1015 29.97 844 24.92 6.1 42.9 69 0.8 33.5 0 0
02:09 1015 29.97 844 24.92 6 42.8 70 0.9 33.6 0 0
02:10 1015 29.97 844 24.92 5.9 42.6 70 0.8 33.5 0 0
02:11 1015 29.97 844 24.92 5.9 42.6 69 0.7 33.3 0 0
02:12 1015 29.97 844 24.92 5.9 42.6 69 0.8 33.4 0 0
02:13 1015 29.97 844 24.92 5.9 42.6 69 0.6 33.2 0 0
02:14 1015 29.97 844 24.92 6 42.8 69 0.8 33.4 0 0
02:15 1015 29.97 844 24.92 6 42.8 69 0.9 33.5 0 0
02:16 1015 29.97 844 24.92 6 42.8 70 0.9 33.6 0 0
02:17 1015 29.97 844 24.92 6 42.8 69 0.8 33.5 0 0
02:18 1015 29.97 844 24.92 5.9 42.7 70 1 33.7 0 0
02:19 1015 29.97 844 24.92 5.9 42.6 71 1 33.9 0 0
02:20 1015 29.97 844 24.92 5.8 42.5 71 1.1 33.9 0 0
02:21 1015 29.97 844 24.92 5.7 42.3 72 1 33.9 0 0
02:22 1015 29.97 844 24.92 5.6 42.2 73 1.2 34.1 0 0
02:23 1015 29.97 844 24.92 5.5 42 74 1.3 34.3 0 0
02:24 1015 29.97 844 24.92 5.4 41.7 74 1.1 34 0 0
02:25 1015 29.97 844 24.92 5.4 41.7 76 1.5 34.7 0 0
02:26 1015 29.97 844 24.92 5.3 41.6 78 1.9 35.4 0 0
02:27 1015 29.97 844 24.92 5.2 41.3 77 1.5 34.7 0 0
02:28 1015 29.97 844 24.92 5.3 41.5 77 1.6 34.9 0 0
02:29 1015 29.97 844 24.92 5.4 41.7 77 1.8 35.2 0 0
02:30 1015 29.97 844 24.92 5.5 42 78 2 35.7 0 0
02:31 1015 29.97 844 24.92 5.6 42 78 2 35.7 0 0
02:32 1015 29.97 844 24.92 5.5 41.8 79 2 35.7 0 0
02:33 1015 29.97 844 24.92 5.4 41.7 79 2.1 35.8 0 0
02:34 1015 29.97 844 24.92 5.3 41.5 81 2.2 36 0 0
02:35 1015 29.97 844 24.92 5.2 41.4 79 2 35.5 0 0
02:36 1015 29.97 845 24.95 5.4 41.6 78 1.8 35.2 0 0
02:37 1015 29.97 845 24.95 5.4 41.6 77 1.7 35 0 0
02:38 1015 29.97 845 24.95 5.2 41.4 78 1.7 35 0 0
02:39 1015 29.97 845 24.95 5.1 41.1 77 1.5 34.6 0 0
02:40 1015 29.97 845 24.95 5.1 41.1 77 1.3 34.3 0 0
02:41 1015 29.97 845 24.95 5.1 41.3 75 1.1 34.1 0 0
02:42 1015 29.97 845 24.95 5.4 41.6 75 1.2 34.2 0 0
02:43 1015 29.97 845 24.95 5.5 42 74 1.2 34.1 0 0
02:44 1015 29.97 845 24.95 5.6 42.2 73 1.2 34.1 0 0
02:45 1015 29.97 845 24.95 5.7 42.3 72 1.2 34.1 0 0
02:46 1015 29.97 845 24.95 5.8 42.4 73 1.2 34.2 0 0
02:47 1015 29.97 845 24.95 5.8 42.5 72 1.1 33.9 0 0
02:48 1015 29.97 845 24.95 5.9 42.6 72 1.2 34.1 0 0
02:49 1015 29.97 845 24.95 5.8 42.4 73 1.3 34.4 0 0
02:50 1015 29.97 845 24.95 5.7 42.2 73 1.2 34.2 0 0
02:51 1015 29.97 845 24.95 5.6 42.1 74 1.3 34.3 0 0
02:52 1015 29.97 845 24.95 5.5 42 73 1.1 34.1 0 0
02:53 1016 30 845 24.95 5.6 42 74 1.3 34.4 0 0
02:54 1016 30 845 24.95 5.6 42 75 1.4 34.6 0 0
02:55 1016 30 845 24.95 5.4 41.8 74 1.1 34 0 0
02:56 1016 30 845 24.95 5.3 41.6 74 1.1 33.9 0 0
02:57 1016 30 845 24.95 5.3 41.6 74 1.1 33.9 0 0
02:58 1016 30 845 24.95 5.3 41.6 74 1.1 34 0 0
02:59 1016 30 845 24.95 5.3 41.5 75 1.2 34.1 0 0
03:00 1015 29.97 845 24.95 5.3 41.5 74 1.1 33.9 0 0
03:01 1016 30 845 24.95 5.2 41.3 74 0.9 33.6 0 0
03:02 1015 29.97 845 24.95 5.2 41.3 73 0.6 33.2 0 0
03:03 1015 29.97 845 24.95 5.2 41.4 72 0.6 33 0 0
03:04 1016 30 845 24.95 5.3 41.6 72 0.6 33.1 0 0
03:05 1016 30 845 24.95 5.4 41.6 72 0.6 33.1 0 0
03:06 1016 30 845 24.95 5.4 41.7 72 0.7 33.3 0 0
03:07 1016 30 845 24.95 5.4 41.7 72 0.8 33.4 0 0
03:08 1016 30 845 24.95 5.3 41.5 73 0.8 33.5 0 0
03:09 1016 30 845 24.95 5.2 41.3 73 0.8 33.5 0 0
03:10 1016 30 845 24.95 5.1 41.1 74 0.8 33.4 0 0
03:11 1016 30 845 24.95 4.9 40.9 74 0.8 33.4 0 0
03:12 1016 30 845 24.95 4.8 40.7 75 0.8 33.4 0 0
03:13 1016 30 845 24.95 4.8 40.6 76 0.8 33.5 0 0
03:14 1016 30 845 24.95 4.7 40.4 76 0.7 33.3 0 0
03:15 1016 30 845 24.95 4.5 40.1 76 0.6 33.1 0 0
03:16 1016 30 845 24.95 4.3 39.7 77 0.6 33.2 0 0
03:17 1016 30 845 24.95 4.2 39.5 78 0.6 33.2 0 0
03:18 1016 30 845 24.95 4.2 39.5 78 0.7 33.2 0 0
03:19 1016 30 845 24.95 4.2 39.6 78 0.7 33.2 0 0
03:20 1016 30 845 24.95 4.2 39.6 77 0.7 33.2 0 0
03:21 1016 30 845 24.95 4.4 39.8 77 0.7 33.3 0 0
03:22 1016 30 845 24.95 4.4 39.9 77 0.7 33.2 0 0
03:23 1016 30 845 24.95 4.4 40 77 0.8 33.4 0 0
03:24 1016 30 845 24.95 4.4 40 77 0.8 33.4 0 0
03:25 1016 30 845 24.95 4.4 40 77 0.7 33.3 0 0
03:26 1016 30 845 24.95 4.4 40 77 0.7 33.3 0 0
03:27 1016 30 845 24.95 4.4 40 77 0.7 33.3 0 0
03:28 1016 30 845 24.95 4.4 40 77 0.7 33.2 0 0
03:29 1016 30 845 24.95 4.4 39.9 76 0.6 33.1 0 0
03:30 1016 30 845 24.95 4.2 39.6 77 0.7 33.2 0 0
03:31 1016 30 845 24.95 4.2 39.5 78 0.7 33.2 0 0
03:32 1016 30 845 24.95 4.2 39.6 78 0.7 33.2 0 0
03:33 1016 30 845 24.95 4.2 39.5 76 0.4 32.8 0 0
03:34 1016 30 845 24.95 4.1 39.4 76 0.3 32.6 0 0
03:35 1016 30 845 24.95 4 39.3 75 -0 32 0 0
03:36 1016 30 845 24.95 3.7 38.7 76 -0.1 31.8 0 0
03:37 1016 30 845 24.95 3.3 38 77 -0.3 31.5 0 0
03:38 1016 30 845 24.95 2.9 37.2 80 -0.3 31.5 0 0
03:39 1016 30 845 24.95 2.5 36.5 83 -0.2 31.7 0 0
03:40 1016 30 845 24.95 2.2 35.9 83 -0.4 31.2 0 0
03:41 1016 30 845 24.95 2.1 35.7 86 -0 31.9 0 0
03:42 1016 30 845 24.95 2.1 35.8 84 -0.3 31.5 0 0
03:43 1016 30 845 24.95 1.9 35.4 85 -0.4 31.3 0 0
03:44 1016 30 845 24.95 1.7 35.1 85 -0.6 31 0 0
03:45 1016 30 845 24.95 1.5 34.7 86 -0.6 30.9 0 0
03:46 1016 30 845 24.95 1.4 34.4 86 -0.8 30.6 0 0
03:47 1016 30 845 24.95 1.1 34 89 -0.5 31.1 0 0
03:48 1016 30 845 24.95 1.1 34.1 90 -0.3 31.4 0 0
03:49 1016 30 845 24.95 1.2 34.2 90 -0.2 31.7 0 0
03:50 1016 30 845 24.95 1.4 34.4 90 -0.1 31.9 0 0
03:51 1016 30 845 24.95 1.5 34.7 89 -0.2 31.7 0 0
03:52 1016 30 845 24.95 1.6 34.9 88 -0.2 31.7 0 0
03:53 1016 30 845 24.95 1.6 34.8 88 -0.2 31.6 0 0
03:54 1016 30 845 24.95 1.6 34.8 88 -0.2 31.6 0 0
03:55 1016 30 845 24.95 1.6 34.9 89 -0 31.9 0 0
03:56 1016 30 845 24.95 1.8 35.2 89 0.1 32.2 0 0
03:57 1016 30 845 24.95 2 35.6 88 0.3 32.5 0 0
03:58 1016 30 845 24.95 2.2 35.9 87 0.2 32.4 0 0
03:59 1016 30 845 24.95 2.3 36.2 86 0.3 32.5 0 0
04:00 1016 30 845 24.95 2.3 36.2 84 -0.1 31.8 0 0
04:01 1016 30 845 24.95 2.2 35.9 84 -0.3 31.5 0 0
04:02 1016 30 845 24.95 2.1 35.7 87 0.1 32.1 0 0
04:03 1016 30 845 24.95 2.2 36 88 0.4 32.7 0 0
04:04 1016 30 845 24.95 2.5 36.4 87 0.5 33 0 0
04:05 1016 30 845 24.95 2.7 36.8 86 0.6 33 0 0
04:06 1016 30 845 24.95 2.9 37.2 84 0.4 32.7 0 0
04:07 1016 30 845 24.95 3 37.4 81 0.1 32.3 0 0
04:08 1016 30 845 24.95 3 37.3 79 -0.4 31.3 0 0
04:09 1016 30 845 24.95 2.7 36.9 85 0.4 32.7 0 0
04:10 1016 30 845 24.95 3.1 37.5 82 0.2 32.4 0 0
04:11 1016 30 845 24.95 3.1 37.7 81 0.1 32.2 0 0
04:12 1016 30 845 24.95 3.1 37.6 80 -0 32 0 0
04:13 1016 30 845 24.95 3.1 37.6 81 0.2 32.3 0 0
04:14 1016 30 845 24.95 3.1 37.7 80 0.1 32.1 0 0
04:15 1016 30 845 24.95 3.1 37.6 81 0.2 32.4 0 0
04:16 1016 30 845 24.95 2.9 37.2 78 -0.6 31 0 0
04:17 1016 30 845 24.95 2.5 36.4 81 -0.5 31.2 0 0
04:18 1016 30 845 24.95 2.1 35.7 83 -0.6 31 0 0
04:19 1016 30 845 24.95 1.8 35.3 84 -0.7 30.8 0 0
04:20 1016 30 845 24.95 1.6 34.9 84 -0.8 30.6 0 0
04:21 1016 30 845 24.95 1.4 34.6 85 -0.8 30.6 0 0
04:22 1016 30 845 24.95 1.3 34.4 88 -0.4 31.2 0 0
04:23 1016 30 845 24.95 1.5 34.8 88 -0.3 31.5 0 0
04:24 1016 30 845 24.95 1.9 35.5 84 -0.4 31.2 0 0
04:25 1016 30 845 24.95 2 35.6 83 -0.6 30.9 0 0
04:26 1016 30 845 24.95 1.9 35.4 83 -0.7 30.7 0 0
04:27 1016 30 845 24.95 1.8 35.2 84 -0.7 30.8 0 0
04:28 1016 30 845 24.95 1.8 35.2 84 -0.6 31 0 0
04:29 1016 30 845 24.95 1.8 35.3 84 -0.5 31 0 0
04:30 1016 30 845 24.95 1.9 35.4 85 -0.4 31.3 0 0
04:31 1016 30 845 24.95 2.2 36 83 -0.3 31.5 0 0
04:32 1016 30 845 24.95 2.5 36.5 82 -0.3 31.5 0 0
04:33 1016 30 845 24.95 2.7 36.9 80 -0.4 31.3 0 0
04:34 1016 30 845 24.95 2.8 37.1 78 -0.6 30.9 0 0
04:35 1016 30 845 24.95 2.7 36.9 80 -0.4 31.3 0 0
04:36 1016 30 845 24.95 2.6 36.6 80 -0.5 31.1 0 0
04:37 1016 30 845 24.95 2.3 36.2 81 -0.6 30.9 0 0
04:38 1016 30 845 24.95 2.1 35.7 82 -0.6 30.9 0 0
04:39 1016 30 845 24.95 1.8 35.3 85 -0.5 31.1 0 0
04:40 1016 30 845 24.95 1.6 35 84 -0.8 30.6 0 0
04:41 1016 30 845 24.95 1.4 34.6 87 -0.5 31.1 0 0
04:42 1016 30 845 24.95 1.4 34.6 87 -0.4 31.2 0 0
04:43 1016 30 845 24.95 1.5 34.7 87 -0.4 31.3 0 0
04:44 1016 30 845 24.95 1.6 34.9 87 -0.3 31.4 0 0
04:45 1016 30 845 24.95 1.7 35 87 -0.2 31.6 0 0
04:46 1016 30 845 24.95 1.8 35.2 85 -0.5 31.2 0 0
04:47 1016 30 845 24.95 1.7 35 85 -0.6 30.9 0 0
04:48 1016 30 845 24.95 1.6 34.9 86 -0.5 31.1 0 0
04:49 1016 30 845 24.95 1.5 34.8 86 -0.5 31 0 0
04:50 1016 30 845 24.95 1.5 34.8 87 -0.4 31.2 0 0
04:51 1016 30 845 24.95 1.5 34.8 87 -0.3 31.4 0 0
04:52 1016 30 845 24.95 1.6 34.9 85 -0.7 30.8 0 0
04:53 1016 30 846 24.98 1.5 34.7 87 -0.4 31.2 0 0
04:54 1016 30 846 24.98 1.5 34.7 87 -0.5 31.1 0 0
04:55 1016 30 846 24.98 1.5 34.7 87 -0.4 31.3 0 0
04:56 1016 30 846 24.98 1.4 34.6 85 -0.8 30.6 0 0
04:57 1016 30 846 24.98 1.2 34.2 87 -0.7 30.8 0 0
04:58 1016 30 846 24.98 1.1 34.1 87 -0.8 30.5 0 0
04:59 1016 30 846 24.98 1 33.7 88 -0.8 30.6 0 0
05:00 1016 30 846 24.98 0.9 33.7 87 -1 30.2 0 0
05:01 1016 30 846 24.98 0.7 33.3 88 -1.1 30.1 0 0
05:02 1016 30 846 24.98 0.7 33.2 89 -0.9 30.4 0 0
05:03 1016 30 846 24.98 0.9 33.6 90 -0.6 30.8 0 0
05:04 1016 30 846 24.98 1 33.8 89 -0.6 30.9 0 0
05:05 1016 30 846 24.98 1.1 34.1 88 -0.6 30.9 0 0
05:06 1016 30 846 24.98 1.2 34.1 88 -0.6 31 0 0
05:07 1016 30 846 24.98 1.2 34.1 88 -0.6 31 0 0
05:08 1016 30 846 24.98 1.1 34 88 -0.7 30.8 0 0
05:09 1017 30.03 846 24.98 1.1 34 87 -0.8 30.6 0 0
05:10 1016 30 846 24.98 1.1 33.9 88 -0.7 30.7 0 0
05:11 1017 30.03 846 24.98 1.2 34.1 87 -0.7 30.7 0 0
05:12 1017 30.03 846 24.98 1.1 34 87 -0.9 30.5 0 0
05:13 1017 30.03 846 24.98 1.1 34 87 -0.9 30.4 0 0
05:14 1017 30.03 846 24.98 1 33.8 87 -1 30.3 0 0
05:15 1017 30.03 846 24.98 0.9 33.7 87 -1 30.3 0 0
05:16 1017 30.03 846 24.98 0.8 33.5 88 -0.9 30.4 0 0
05:17 1017 30.03 846 24.98 0.9 33.6 90 -0.7 30.8 0 0
05:18 1017 30.03 846 24.98 1 33.7 88 -0.8 30.5 0 0
05:19 1017 30.03 846 24.98 0.9 33.6 88 -0.9 30.4 0 0
05:20 1017 30.03 846 24.98 0.9 33.6 88 -0.9 30.4 0 0
05:21 1017 30.03 846 24.98 0.9 33.5 88 -0.9 30.3 0 0
05:22 1017 30.03 846 24.98 0.8 33.5 88 -1 30.2 0 0
05:23 1017 30.03 846 24.98 0.8 33.4 88 -1 30.3 0 0
05:24 1017 30.03 846 24.98 0.8 33.4 89 -0.9 30.4 0 0
05:25 1017 30.03 846 24.98 0.8 33.4 89 -0.8 30.6 0 0
05:26 1017 30.03 846 24.98 0.8 33.5 90 -0.7 30.7 0 0
05:27 1017 30.03 846 24.98 0.9 33.7 90 -0.5 31.1 0 0
05:28 1017 30.03 846 24.98 1.1 34 89 -0.5 31.1 0 0
05:29 1017 30.03 846 24.98 1.2 34.2 88 -0.6 31 0 0
05:30 1017 30.03 846 24.98 1.2 34.1 88 -0.7 30.8 0 0
05:31 1017 30.03 846 24.98 1.2 34.2 88 -0.5 31 0 0
05:32 1017 30.03 846 24.98 1.3 34.3 88 -0.5 31.2 0 0
05:33 1017 30.03 846 24.98 1.3 34.4 88 -0.5 31.1 0 0
05:34 1017 30.03 846 24.98 1.4 34.5 87 -0.5 31.1 0 0
05:35 1017 30.03 846 24.98 1.5 34.6 87 -0.5 31.1 0 0
05:36 1017 30.03 846 24.98 1.5 34.7 86 -0.7 30.8 0 0
05:37 1017 30.03 846 24.98 1.4 34.5 85 -0.9 30.4 0 0
05:38 1017 30.03 846 24.98 1.2 34.1 86 -0.9 30.4 0 0
05:39 1017 30.03 846 24.98 1.1 34 86 -1 30.2 0 0
05:40 1017 30.03 846 24.98 1 33.7 86 -1.1 30 0 0
05:41 1017 30.03 846 24.98 0.9 33.6 87 -1 30.3 0 0
05:42 1017 30.03 846 24.98 0.9 33.7 87 -1 30.2 0 0
05:43 1017 30.03 846 24.98 0.9 33.6 87 -1 30.1 0 0
05:44 1017 30.03 846 24.98 0.9 33.6 86 -1.1 29.9 0 0
05:45 1017 30.03 846 24.98 0.9 33.5 85 -1.3 29.6 0 0
05:46 1017 30.03 846 24.98 0.7 33.3 86 -1.4 29.5 0 0
05:47 1017 30.03 846 24.98 0.7 33.2 88 -1.1 30 0 0
05:48 1017 30.03 846 24.98 0.7 33.3 87 -1.1 29.9 0 0
05:49 1017 30.03 846 24.98 0.8 33.5 87 -1.1 30 0 0
05:50 1017 30.03 846 24.98 0.8 33.4 86 -1.2 29.8 0 0
05:51 1017 30.03 846 24.98 0.8 33.4 87 -1.2 29.9 0 0
05:52 1017 30.03 846 24.98 0.7 33.2 86 -1.3 29.6 0 0
05:53 1017 30.03 846 24.98 0.5 33 87 -1.4 29.4 0 0
05:54 1017 30.03 846 24.98 0.4 32.7 87 -1.5 29.3 0 0
05:55 1017 30.03 846 24.98 0.3 32.5 89 -1.4 29.5 0 0
05:56 1017 30.03 846 24.98 0.1 32.2 89 -1.5 29.3 0 0
05:57 1017 30.03 846 24.98 -0 32 90 -1.5 29.3 0 0
05:58 1017 30.03 846 24.98 -0.1 31.9 91 -1.4 29.5 0 0
05:59 1017 30.03 846 24.98 -0.1 31.9 91 -1.4 29.4 0 0
06:00 1017 30.03 846 24.98 -0.2 31.7 90 -1.5 29.2 0 0
06:01 1017 30.03 846 24.98 -0.2 31.6 91 -1.6 29.2 0 0
06:02 1017 30.03 846 24.98 -0.3 31.5 91 -1.6 29.2 0 0
06:03 1017 30.03 846 24.98 -0.3 31.4 91 -1.6 29 0 0
06:04 1017 30.03 846 24.98 -0.4 31.3 91 -1.6 29 0 0
06:05 1017 30.03 846 24.98 -0.4 31.3 91 -1.7 28.9 0 0
06:06 1017 30.03 846 24.98 -0.4 31.3 92 -1.5 29.3 0 0
06:07 1017 30.03 846 24.98 -0.3 31.5 92 -1.4 29.5 0 0
06:08 1017 30.03 846 24.98 -0.1 31.9 91 -1.3 29.7 0 0
06:09 1017 30.03 846 24.98 0 32 90 -1.5 29.4 0 0
06:10 1017 30.03 846 24.98 -0.1 31.9 89 -1.6 29.1 0 0
06:11 1017 30.03 846 24.98 -0.1 31.8 90 -1.6 29.1 0 0
06:12 1017 30.03 846 24.98 -0.2 31.7 90 -1.7 29 0 0
06:13 1017 30.03 846 24.98 -0.2 31.6 90 -1.7 29 0 0
06:14 1017 30.03 846 24.98 -0.2 31.7 90 -1.6 29.2 0 0
06:15 1017 30.03 846 24.98 -0.1 31.8 90 -1.6 29.1 0 0
06:16 1017 30.03 846 24.98 -0.1 31.9 89 -1.6 29.1 0 0
06:17 1017 30.03 846 24.98 -0 32 89 -1.6 29.1 0 0
06:18 1017 30.03 846 24.98 0.1 32.1 88 -1.6 29.1 0 0
06:19 1017 30.03 846 24.98 0.1 32.2 88 -1.7 29 0 0
06:20 1017 30.03 846 24.98 0.1 32.1 87 -1.8 28.8 0 0
06:21 1017 30.03 846 24.98 -0 32 88 -1.8 28.8 0 0
06:22 1017 30.03 846 24.98 -0 31.9 88 -1.8 28.8 0 0
06:23 1017 30.03 846 24.98 -0.1 31.9 88 -1.9 28.7 0 0
06:24 1017 30.03 846 24.98 -0.1 31.8 88 -1.8 28.7 0 0
06:25 1017 30.03 846 24.98 -0.1 31.7 89 -1.8 28.7 0 0
06:26 1017 30.03 846 24.98 -0.1 31.8 89 -1.8 28.8 0 0
06:27 1017 30.03 846 24.98 -0.2 31.7 88 -1.9 28.6 0 0
06:28 1017 30.03 846 24.98 -0.3 31.5 89 -1.9 28.5 0 0
06:29 1017 30.03 846 24.98 -0.4 31.4 89 -1.9 28.6 0 0
06:30 1017 30.03 846 24.98 -0.4 31.3 90 -1.9 28.6 0 0
06:31 1017 30.03 846 24.98 -0.4 31.3 90 -1.9 28.7 0 0
06:32 1017 30.03 846 24.98 -0.4 31.2 90 -1.9 28.6 0 0
06:33 1017 30.03 846 24.98 -0.4 31.2 90 -1.9 28.6 0 0
06:34 1017 30.03 846 24.98 -0.4 31.2 90 -1.8 28.7 0 0
06:35 1017 30.03 846 24.98 -0.4 31.4 90 -1.7 28.9 0 0
06:36 1017 30.03 846 24.98 -0.3 31.5 91 -1.6 29.1 0 0
06:37 1017 30.03 846 24.98 -0.2 31.7 91 -1.5 29.3 0 0
06:38 1017 30.03 846 24.98 -0 31.9 90 -1.4 29.4 0 0
06:39 1017 30.03 846 24.98 0.2 32.3 89 -1.3 29.6 0 0
06:40 1017 30.03 846 24.98 0.4 32.7 88 -1.4 29.6 0 0
06:41 1017 30.03 846 24.98 0.4 32.8 88 -1.4 29.6 0 0
06:42 1017 30.03 846 24.98 0.5 32.9 88 -1.3 29.6 0 0
06:43 1017 30.03 846 24.98 0.5 32.9 87 -1.4 29.6 0 0
06:44 1017 30.03 846 24.98 0.5 32.9 88 -1.3 29.6 0 0
06:45 1017 30.03 846 24.98 0.4 32.8 88 -1.3 29.6 0 0
06:46 1017 30.03 846 24.98 0.4 32.8 88 -1.3 29.7 0 0
06:47 1017 30.03 846 24.98 0.4 32.8 88 -1.3 29.7 0 0
06:48 1017 30.03 846 24.98 0.5 32.8 88 -1.3 29.7 0 0
06:49 1017 30.03 846 24.98 0.5 32.9 88 -1.2 29.9 0 0
06:50 1017 30.03 846 24.98 0.6 33 88 -1.2 29.9 0 0
06:51 1017 30.03 846 24.98 0.6 33.2 88 -1.2 29.9 0 0
06:52 1017 30.03 846 24.98 0.7 33.2 88 -1.1 29.9 0 0
06:53 1017 30.03 846 24.98 0.7 33.3 88 -1.1 30.1 0 0
06:54 1017 30.03 846 24.98 0.7 33.3 88 -1.1 30.1 0 0
06:55 1017 30.03 846 24.98 0.8 33.5 88 -0.9 30.3 0 0
06:56 1017 30.03 846 24.98 0.8 33.5 88 -0.9 30.4 0 0
06:57 1017 30.03 846 24.98 0.9 33.6 89 -0.8 30.6 0 0
06:58 1017 30.03 846 24.98 1 33.7 89 -0.7 30.8 0 0
06:59 1017 30.03 846 24.98 1.1 33.9 88 -0.6 30.8 0 0
07:00 1017 30.03 846 24.98 1.2 34.1 88 -0.6 31 0 0
07:01 1017 30.03 846 24.98 1.2 34.2 88 -0.6 30.9 0 0
07:02 1017 30.03 846 24.98 1.3 34.3 88 -0.5 31.1 0 0
07:03 1017 30.03 846 24.98 1.4 34.6 87 -0.4 31.2 0 0
07:04 1017 30.03 846 24.98 1.6 34.9 86 -0.4 31.3 0 0
07:05 1017 30.03 846 24.98 1.8 35.3 86 -0.3 31.5 0 0
07:06 1017 30.03 846 24.98 2.1 35.7 85 -0.2 31.7 0 0
07:07 1017 30.03 846 24.98 2.2 36 84 -0.2 31.7 0 0
07:08 1017 30.03 846 24.98 2.4 36.3 84 -0.1 31.7 0 0
07:09 1017 30.03 846 24.98 2.4 36.3 83 -0.2 31.7 0 0
07:10 1017 30.03 847 25.01 2.5 36.4 83 -0.1 31.8 0 0
07:11 1017 30.03 847 25.01 2.5 36.5 83 -0.1 31.9 0 0
07:12 1017 30.03 847 25.01 2.5 36.6 83 0 32 0 0
07:13 1017 30.03 847 25.01 2.6 36.7 83 0.1 32.1 0 0
07:14 1017 30.03 847 25.01 2.8 37 83 0.1 32.3 0 0
07:15 1017 30.03 847 25.01 2.8 37.1 83 0.2 32.3 0 0
07:16 1017 30.03 847 25.01 3 37.3 81 0.1 32.1 0 0
07:17 1017 30.03 847 25.01 3 37.4 81 0.1 32.2 0 0
07:18 1017 30.03 847 25.01 3.1 37.5 81 0.1 32.2 0 0
07:19 1017 30.03 847 25.01 3.1 37.5 80 0 32 0 0
07:20 1017 30.03 847 25.01 3.1 37.6 80 -0 32 0 0
07:21 1017 30.03 847 25.01 3.2 37.8 81 0.2 32.4 0 0
07:22 1017 30.03 847 25.01 3.2 37.8 81 0.3 32.6 0 0
07:23 1017 30.03 847 25.01 3.2 37.8 81 0.3 32.6 0 0
07:24 1017 30.03 847 25.01 3.3 37.9 80 0.2 32.4 0 0
07:25 1017 30.03 847 25.01 3.4 38 80 0.2 32.4 0 0
07:26 1017 30.03 847 25.01 3.4 38.2 80 0.3 32.6 0 0
07:27 1017 30.03 847 25.01 3.5 38.4 80 0.4 32.7 0 0
07:28 1017 30.03 847 25.01 3.6 38.5 78 0.2 32.3 0 0
07:29 1017 30.03 847 25.01 3.7 38.7 79 0.4 32.8 0 0
07:30 1017 30.03 847 25.01 3.8 38.8 79 0.4 32.8 0 0
07:31 1017 30.03 847 25.01 3.9 39 79 0.6 33.1 0 0
07:32 1017 30.03 847 25.01 4 39.1 78 0.5 33 0 0
07:33 1017 30.03 847 25.01 4.1 39.3 79 0.7 33.2 0 0
07:34 1017 30.03 847 25.01 4.1 39.4 78 0.6 33.1 0 0
07:35 1017 30.03 847 25.01 4.2 39.6 78 0.7 33.3 0 0
07:36 1017 30.03 847 25.01 4.3 39.7 78 0.7 33.2 0 0
07:37 1017 30.03 847 25.01 4.4 39.9 78 0.8 33.5 0 0
07:38 1017 30.03 847 25.01 4.4 39.9 78 0.8 33.5 0 0
07:39 1017 30.03 847 25.01 4.4 40 78 1 33.8 0 0
07:40 1017 30.03 847 25.01 4.5 40.1 78 1.1 33.9 0 0
07:41 1017 30.03 847 25.01 4.6 40.3 78 1.1 34 0 0
07:42 1017 30.03 847 25.01 4.7 40.4 79 1.4 34.5 0 0
07:43 1017 30.03 847 25.01 4.8 40.6 78 1.3 34.3 0 0
07:44 1017 30.03 847 25.01 4.8 40.7 77 1.1 34 0 0
07:45 1017 30.03 847 25.01 4.9 40.8 79 1.6 34.9 0 0
07:46 1017 30.03 847 25.01 5 41 78 1.5 34.6 0 0
07:47 1017 30.03 847 25.01 5.1 41.2 77 1.5 34.7 0 0
07:48 1017 30.03 847 25.01 5.3 41.5 78 1.7 35.1 0 0
07:49 1017 30.03 847 25.01 5.4 41.7 79 2 35.6 0 0
07:50 1017 30.03 847 25.01 5.6 42 77 1.9 35.4 0 0
07:51 1017 30.03 847 25.01 5.7 42.3 74 1.5 34.7 0 0
07:52 1017 30.03 847 25.01 5.8 42.4 76 1.8 35.3 0 0
07:53 1017 30.03 847 25.01 5.9 42.6 75 1.8 35.2 0 0
07:54 1017 30.03 847 25.01 6 42.8 73 1.5 34.6 0 0
07:55 1017 30.03 847 25.01 6.1 43 73 1.6 34.9 0 0
07:56 1017 30.03 847 25.01 6.3 43.3 71 1.4 34.5 0 0
07:57 1017 30.03 847 25.01 6.6 43.8 72 1.8 35.3 0 0
07:58 1017 30.03 847 25.01 6.8 44.2 71 1.9 35.4 0 0
07:59 1017 30.03 847 25.01 6.8 44.3 73 2.3 36.1 0 0
08:00 1017 30.03 847 25.01 6.9 44.4 72 2.2 36 0 0
08:01 1017 30.03 847 25.01 6.9 44.4 69 1.7 35 0 0
08:02 1017 30.03 847 25.01 6.9 44.4 68 1.5 34.6 0 0
08:03 1017 30.03 847 25.01 6.9 44.4 73 2.5 36.5 0 0
08:04 1018 30.06 847 25.01 6.8 44.3 71 1.9 35.5 0 0
08:05 1017 30.03 847 25.01 6.8 44.2 69 1.6 34.9 0 0
08:06 1018 30.06 847 25.01 6.8 44.2 69 1.4 34.5 0 0
08:07 1018 30.06 847 25.01 6.8 44.2 70 1.8 35.2 0 0
08:08 1018 30.06 847 25.01 6.8 44.3 70 1.7 35.1 0 0
08:09 1018 30.06 847 25.01 6.8 44.3 67 1.2 34.2 0 0
08:10 1018 30.06 847 25.01 7 44.6 67 1.3 34.3 0 0
08:11 1018 30.06 847 25.01 7.1 44.7 64 0.7 33.3 0 0
08:12 1018 30.06 847 25.01 7.2 44.9 66 1.3 34.4 0 0
08:13 1018 30.06 847 25.01 7.4 45.2 62 0.5 32.9 0 0
08:14 1018 30.06 847 25.01 7.5 45.5 62 0.7 33.2 0 0
08:15 1018 30.06 847 25.01 7.7 45.8 60 0.5 32.9 0 0
08:16 1018 30.06 847 25.01 7.8 46 64 1.3 34.4 0 0
08:17 1018 30.06 847 25.01 7.8 46.1 64 1.6 34.8 0 0
08:18 1018 30.06 847 25.01 7.8 46.1 63 1.2 34.1 0 0
08:19 1018 30.06 847 25.01 7.8 46 63 1.1 34 0 0
08:20 1018 30.06 847 25.01 7.8 46 64 1.4 34.5 0 0
08:21 1018 30.06 847 25.01 7.7 45.8 66 1.7 35.1 0 0
08:22 1018 30.06 847 25.01 7.8 46 63 1.2 34.2 0 0
08:23 1018 30.06 847 25.01 7.9 46.1 64 1.6 34.8 0 0
08:24 1017 30.03 847 25.01 8 46.4 64 1.7 35.1 0 0
08:25 1017 30.03 847 25.01 8.1 46.6 61 1 33.7 0 0
08:26 1018 30.06 847 25.01 8.1 46.7 60 0.8 33.4 0 0
08:27 1018 30.06 847 25.01 8.4 47.1 61 1.2 34.2 0 0
08:28 1018 30.06 847 25.01 8.4 47.1 59 0.8 33.4 0 0
08:29 1018 30.06 847 25.01 8.3 46.9 60 1 33.8 0 0
08:30 1018 30.06 847 25.01 8.2 46.8 60 1 33.9 0 0
08:31 1018 30.06 847 25.01 8.3 47 61 1.3 34.4 0 0
08:32 1018 30.06 847 25.01 8.2 46.8 59 0.8 33.5 0 0
08:33 1018 30.06 847 25.01 8.2 46.8 67 2.5 36.5 0 0
08:34 1018 30.06 847 25.01 8.3 47 66 2.3 36.2 0 0
08:35 1018 30.06 847 25.01 8.4 47.1 60 1.2 34.2 0 0
08:36 1018 30.06 847 25.01 8.4 47.1 65 2.2 35.9 0 0
08:37 1018 30.06 847 25.01 8.4 47.2 62 1.7 35 0 0
08:38 1018 30.06 847 25.01 8.4 47 59 0.9 33.6 0 0
08:39 1018 30.06 847 25.01 8.2 46.7 59 0.6 33.1 0 0
08:40 1018 30.06 847 25.01 8.1 46.6 63 1.5 34.6 0 0
08:41 1018 30.06 847 25.01 8.1 46.7 63 1.5 34.7 0 0
08:42 1018 30.06 847 25.01 8.2 46.8 61 1.1 34 0 0
08:43 1018 30.06 847 25.01 8.3 46.9 62 1.5 34.7 0 0
08:44 1018 30.06 847 25.01 8.4 47 59 0.9 33.7 0 0
08:45 1018 30.06 847 25.01 8.5 47.3 63 2 35.6 0 0
08:46 1018 30.06 847 25.01 8.7 47.7 58 1 33.8 0 0
08:47 1018 30.06 847 25.01 8.7 47.6 59 1.2 34.2 0 0
08:48 1018 30.06 847 25.01 8.6 47.5 56 0.3 32.5 0 0
08:49 1018 30.06 847 25.01 8.5 47.4 56 0.3 32.6 0 0
08:50 1018 30.06 847 25.01 8.6 47.4 59 1 33.8 0 0
08:51 1018 30.06 847 25.01 8.5 47.4 58 0.9 33.6 0 0
08:52 1018 30.06 847 25.01 8.5 47.3 57 0.5 32.8 0 0
08:53 1018 30.06 847 25.01 8.4 47.2 60 1.2 34.2 0 0
08:54 1018 30.06 847 25.01 8.5 47.3 59 1 33.9 0 0
08:55 1018 30.06 847 25.01 8.6 47.5 57 0.5 33 0 0
08:56 1018 30.06 847 25.01 8.7 47.6 57 0.6 33.1 0 0
08:57 1017 30.03 847 25.01 8.7 47.7 59 1.2 34.1 0 0
08:58 1017 30.03 847 25.01 8.8 47.8 60 1.5 34.7 0 0
08:59 1017 30.03 847 25.01 8.8 47.9 60 1.5 34.6 0 0
09:00 1017 30.03 847 25.01 8.9 48 64 2.5 36.5 0 0
09:01 1017 30.03 847 25.01 9 48.1 66 3 37.4 0 0
09:02 1017 30.03 847 25.01 9.1 48.3 65 2.8 37.1 0 0
09:03 1017 30.03 847 25.01 9.2 48.5 56 0.9 33.6 0 0
09:04 1017 30.03 847 25.01 9.1 48.4 64 2.7 36.8 0 0
09:05 1017 30.03 847 25.01 9.1 48.4 57 1.1 33.9 0 0
09:06 1017 30.03 847 25.01 9 48.2 60 1.6 34.9 0 0
09:07 1017 30.03 847 25.01 9 48.2 63 2.5 36.4 0 0
09:08 1017 30.03 847 25.01 9 48.3 54 0.3 32.5 0 0
09:09 1017 30.03 847 25.01 9 48.2 58 1.3 34.4 0 0
09:10 1017 30.03 847 25.01 9.1 48.3 59 1.5 34.7 0 0
09:11 1017 30.03 847 25.01 9.1 48.4 60 1.7 35.1 0 0
09:12 1017 30.03 847 25.01 9.1 48.3 58 1.3 34.4 0 0
09:13 1017 30.03 847 25.01 9.1 48.3 66 3 37.4 0 0
09:14 1018 30.06 847 25.01 9.1 48.4 60 1.8 35.2 0 0
09:15 1017 30.03 847 25.01 9.2 48.5 60 1.8 35.3 0 0
09:16 1017 30.03 847 25.01 9.2 48.6 60 1.8 35.3 0 0
09:17 1017 30.03 847 25.01 9.3 48.8 56 1.1 34 0 0
09:18 1017 30.03 847 25.01 9.3 48.7 56 0.9 33.7 0 0
09:19 1017 30.03 847 25.01 9.4 48.8 58 1.6 34.9 0 0
09:20 1017 30.03 847 25.01 9.4 48.9 56 1.1 34 0 0
09:21 1017 30.03 847 25.01 9.4 48.9 57 1.3 34.3 0 0
09:22 1017 30.03 847 25.01 9.4 49 56 1.2 34.1 0 0
09:23 1017 30.03 847 25.01 9.5 49 61 2.4 36.3 0 0
09:24 1017 30.03 847 25.01 9.6 49.2 60 2.1 35.9 0 0
09:25 1017 30.03 847 25.01 9.6 49.3 58 1.9 35.3 0 0
09:26 1017 30.03 847 25.01 9.7 49.5 58 1.9 35.4 0 0
09:27 1017 30.03 847 25.01 9.9 49.8 55 1.4 34.5 0 0
09:28 1017 30.03 847 25.01 10 50 57 2 35.6 0 0
09:29 1017 30.03 847 25.01 9.9 49.9 58 2.1 35.8 0 0
09:30 1017 30.03 847 25.01 9.9 49.8 57 1.8 35.2 0 0
09:31 1017 30.03 847 25.01 9.8 49.7 54 1.1 33.9 0 0
09:32 1017 30.03 847 25.01 9.9 49.9 54 1.2 34.1 0 0
09:33 1017 30.03 847 25.01 10.2 50.3 56 1.9 35.3 0 0
09:34 1017 30.03 847 25.01 10.4 50.6 51 0.6 33 0 0
09:35 1017 30.03 847 25.01 10.2 50.4 54 1.4 34.5 0 0
09:36 1017 30.03 847 25.01 10.2 50.3 61 3.1 37.5 0 0
09:37 1017 30.03 847 25.01 10.2 50.4 61 3 37.4 0 0
09:38 1017 30.03 847 25.01 10.2 50.4 52 0.9 33.7 0 0
09:39 1017 30.03 847 25.01 10.2 50.4 54 1.4 34.5 0 0
09:40 1017 30.03 847 25.01 10.2 50.3 51 0.6 33.1 0 0
09:41 1017 30.03 847 25.01 10.2 50.3 51 0.6 33.2 0 0
09:42 1017 30.03 847 25.01 10.3 50.6 55 1.8 35.2 0 0
09:43 1017 30.03 847 25.01 10.4 50.7 50 0.5 32.8 0 0
09:44 1017 30.03 847 25.01 10.3 50.6 56 1.9 35.4 0 0
09:45 1017 30.03 847 25.01 10.4 50.7 50 0.4 32.7 0 0
09:46 1017 30.03 847 25.01 10.3 50.6 56 1.9 35.5 0 0
09:47 1017 30.03 847 25.01 10.3 50.6 55 1.7 35 0 0
09:48 1017 30.03 847 25.01 10.3 50.6 54 1.4 34.6 0 0
09:49 1017 30.03 847 25.01 10.4 50.7 56 2.1 35.8 0 0
09:50 1017 30.03 847 25.01 10.4 50.6 50 0.5 32.9 0 0
09:51 1017 30.03 847 25.01 10.4 50.7 49 0.3 32.5 0 0
09:52 1017 30.03 847 25.01 10.3 50.6 53 1.1 34 0 0
09:53 1017 30.03 846 24.98 10.4 50.7 60 3.1 37.5 0 0
09:54 1017 30.03 846 24.98 10.5 50.8 47 -0.3 31.4 0 0
09:55 1017 30.03 846 24.98 10.5 50.8 53 1.2 34.2 0 0
09:56 1017 30.03 846 24.98 10.5 50.8 46 -0.8 30.6 0 0
09:57 1017 30.03 846 24.98 10.4 50.7 50 0.4 32.7 0 0
09:58 1017 30.03 846 24.98 10.3 50.6 57 2.1 35.8 0 0
09:59 1017 30.03 846 24.98 10.4 50.7 56 2.1 35.7 0 0
10:00 1017 30.03 846 24.98 10.5 50.9 59 3 37.3 0 0
10:01 1017 30.03 846 24.98 10.6 51 53 1.4 34.5 0 0
10:02 1017 30.03 846 24.98 10.6 51 49 0.4 32.8 0 0
10:03 1017 30.03 847 25.01 10.7 51.2 55 2.1 35.8 0 0
10:04 1017 30.03 846 24.98 10.8 51.4 49 0.7 33.2 0 0
10:05 1017 30.03 846 24.98 10.7 51.3 48 0.1 32.2 0 0
10:06 1017 30.03 846 24.98 10.6 51.1 50 0.8 33.4 0 0
10:07 1017 30.03 846 24.98 10.7 51.2 55 2.1 35.8 0 0
10:08 1017 30.03 846 24.98 10.7 51.3 56 2.4 36.4 0 0
10:09 1017 30.03 846 24.98 10.8 51.4 48 0.3 32.5 0 0
10:10 1017 30.03 846 24.98 10.9 51.6 56 2.5 36.4 0 0
10:11 1017 30.03 846 24.98 11 51.8 54 2.1 35.7 0 0
10:12 1017 30.03 846 24.98 11 51.7 53 1.8 35.2 0 0
10:13 1017 30.03 846 24.98 10.9 51.6 53 1.8 35.3 0 0
10:14 1017 30.03 846 24.98 10.8 51.4 56 2.4 36.4 0 0
10:15 1017 30.03 846 24.98 10.8 51.5 53 1.7 35.1 0 0
10:16 1017 30.03 846 24.98 10.9 51.6 48 0.5 32.9 0 0
10:17 1017 30.03 846 24.98 10.9 51.5 56 2.6 36.6 0 0
10:18 1017 30.03 846 24.98 11 51.7 57 2.9 37.2 0 0
10:19 1017 30.03 846 24.98 11.1 51.9 54 2.1 35.7 0 0
10:20 1017 30.03 846 24.98 11.1 51.9 51 1.3 34.3 0 0
10:21 1017 30.03 846 24.98 11 51.8 50 1.2 34.1 0 0
10:22 1017 30.03 846 24.98 11 51.9 48 0.5 32.8 0 0
10:23 1017 30.03 846 24.98 11.1 51.9 51 1.3 34.4 0 0
10:24 1017 30.03 846 24.98 11.1 52 49 0.8 33.4 0 0
10:25 1017 30.03 846 24.98 11.1 52 50 1.1 33.9 0 0
10:26 1017 30.03 846 24.98 11 51.8 54 2.1 35.9 0 0
10:27 1017 30.03 846 24.98 11 51.8 57 2.8 37.1 0 0
10:28 1017 30.03 846 24.98 11.1 52 55 2.6 36.6 0 0
10:29 1017 30.03 846 24.98 11.2 52.1 57 3 37.4 0 0
10:30 1017 30.03 846 24.98 11.2 52.2 55 2.5 36.4 0 0
10:31 1017 30.03 846 24.98 11.2 52.2 52 1.8 35.2 0 0
10:32 1017 30.03 846 24.98 11.2 52.2 53 1.9 35.5 0 0
10:33 1017 30.03 846 24.98 11.3 52.3 52 1.8 35.3 0 0
10:34 1017 30.03 846 24.98 11.2 52.1 57 2.9 37.2 0 0
10:35 1017 30.03 846 24.98 11.1 51.9 49 0.8 33.4 0 0
10:36 1017 30.03 846 24.98 11.1 51.9 56 2.7 36.9 0 0
10:37 1017 30.03 846 24.98 11.3 52.3 54 2.4 36.4 0 0
10:38 1017 30.03 846 24.98 11.4 52.5 54 2.4 36.4 0 0
10:39 1017 30.03 846 24.98 11.4 52.5 48 0.9 33.7 0 0
10:40 1017 30.03 846 24.98 11.4 52.5 50 1.4 34.6 0 0
10:41 1017 30.03 846 24.98 11.5 52.6 56 3 37.5 0 0
10:42 1017 30.03 846 24.98 11.5 52.7 51 1.9 35.4 .2 0.008
10:43 1017 30.03 846 24.98 11.5 52.6 52 2 35.6 0 0
10:44 1017 30.03 846 24.98 11.4 52.4 47 0.4 32.7 0 0
10:45 1017 30.03 846 24.98 11.3 52.3 53 2.1 35.7 0 0
10:46 1017 30.03 846 24.98 11.4 52.5 47 0.7 33.3 0 0
10:47 1017 30.03 846 24.98 11.6 52.8 52 2.2 35.9 0 0
10:48 1017 30.03 846 24.98 11.7 53 49 1.4 34.4 0 0
10:49 1017 30.03 846 24.98 11.8 53.2 53 2.7 36.8 0 0
10:50 1017 30.03 846 24.98 11.9 53.4 49 1.6 34.9 0 0
10:51 1017 30.03 846 24.98 11.9 53.4 52 2.3 36.2 0 0
10:52 1017 30.03 846 24.98 11.9 53.5 46 0.7 33.3 0 0
10:53 1017 30.03 846 24.98 11.8 53.3 46 0.6 33 0 0
10:54 1017 30.03 846 24.98 11.7 53.1 52 2.2 35.9 0 0
10:55 1017 30.03 846 24.98 11.7 53 51 1.9 35.4 0 0
10:56 1017 30.03 846 24.98 11.7 53.1 47 1 33.8 0 0
10:57 1017 30.03 846 24.98 11.7 53 47 0.7 33.3 0 0
10:58 1017 30.03 846 24.98 11.7 53 49 1.5 34.8 0 0
10:59 1017 30.03 846 24.98 11.7 53.1 45 0.2 32.4 0 0
11:00 1017 30.03 846 24.98 11.7 53.1 48 1.3 34.3 0 0
11:01 1017 30.03 846 24.98 11.8 53.2 44 0.1 32.2 0 0
11:02 1017 30.03 846 24.98 11.7 53.1 46 0.4 32.8 0 0
11:03 1017 30.03 846 24.98 11.6 52.9 47 0.9 33.6 0 0
11:04 1017 30.03 846 24.98 11.7 53 44 0 32 0 0
11:05 1017 30.03 846 24.98 11.7 53 43 -0.5 31.1 0 0
11:06 1017 30.03 846 24.98 11.7 53.1 43 -0.4 31.2 0 0
11:07 1017 30.03 846 24.98 11.7 53 49 1.5 34.7 0 0
11:08 1017 30.03 846 24.98 11.7 53.1 47 0.7 33.3 0 0
11:09 1017 30.03 846 24.98 11.8 53.2 50 1.7 35 0 0
11:10 1017 30.03 846 24.98 12 53.5 42 -0.4 31.3 0 0
11:11 1017 30.03 846 24.98 11.9 53.5 46 0.8 33.5 0 0
11:12 1017 30.03 846 24.98 11.9 53.4 42 -0.4 31.2 0 0
11:13 1017 30.03 846 24.98 11.9 53.4 43 -0.2 31.7 0 0
11:14 1017 30.03 846 24.98 11.9 53.4 54 3 37.3 0 0
11:15 1017 30.03 846 24.98 12 53.6 50 2 35.6 0 0
11:16 1017 30.03 846 24.98 12.1 53.8 45 0.6 33 0 0
11:17 1017 30.03 846 24.98 12.1 53.7 46 1 33.8 0 0
11:18 1017 30.03 846 24.98 12.1 53.8 48 1.5 34.7 0 0
11:19 1017 30.03 846 24.98 12.1 53.7 48 1.4 34.5 0 0
11:20 1017 30.03 846 24.98 12.1 53.7 56 3.6 38.5 0 0
11:21 1017 30.03 846 24.98 12.2 53.9 42 -0.3 31.4 0 0
11:22 1017 30.03 846 24.98 12.1 53.8 48 1.4 34.5 0 0
11:23 1017 30.03 846 24.98 12 53.6 51 2.4 36.3 0 0
11:24 1017 30.03 846 24.98 11.9 53.4 45 0.4 32.7 0 0
11:25 1017 30.03 846 24.98 11.8 53.2 46 0.7 33.3 0 0
11:26 1017 30.03 846 24.98 11.8 53.2 51 2.1 35.8 0 0
11:27 1017 30.03 846 24.98 11.9 53.3 50 1.9 35.4 0 0
11:28 1017 30.03 846 24.98 12.1 53.7 49 1.9 35.4 0 0
11:29 1017 30.03 846 24.98 12.2 54 46 1 33.7 0 0
11:30 1017 30.03 846 24.98 12.1 53.8 53 2.8 37.1 0 0
11:31 1017 30.03 846 24.98 12.2 53.9 50 2 35.6 0 0
11:32 1017 30.03 846 24.98 12.3 54.1 47 1.4 34.4 0 0
11:33 1017 30.03 846 24.98 12.5 54.5 50 2.5 36.4 0 0
11:34 1017 30.03 846 24.98 12.5 54.5 46 1.4 34.5 0 0
11:35 1017 30.03 846 24.98 12.4 54.3 42 -0.2 31.6 0 0
11:36 1017 30.03 846 24.98 12.3 54.1 39 -1.3 29.7 0 0
11:37 1017 30.03 846 24.98 12.3 54.1 52 2.9 37.1 0 0
11:38 1017 30.03 846 24.98 12.3 54.2 47 1.4 34.4 0 0
11:39 1017 30.03 846 24.98 12.3 54.2 48 1.7 35.1 0 0
11:40 1017 30.03 846 24.98 12.3 54.1 49 2 35.6 0 0
11:41 1017 30.03 846 24.98 12.2 54 48 1.7 35 0 0
11:42 1017 30.03 846 24.98 12.2 54 49 2 35.5 0 0
11:43 1017 30.03 846 24.98 12.2 53.9 42 -0.2 31.6 0 0
11:44 1017 30.03 846 24.98 12 53.6 51 2.3 36.1 0 0
11:45 1017 30.03 846 24.98 11.8 53.3 43 -0.4 31.2 0 0
11:46 1017 30.03 846 24.98 11.7 53 41 -1.1 30 0 0
11:47 1017 30.03 846 24.98 11.5 52.7 45 0.2 32.4 0 0
11:48 1017 30.03 846 24.98 11.6 52.8 50 1.6 34.8 0 0
11:49 1017 30.03 846 24.98 11.7 53.1 44 -0.2 31.7 0 0
11:50 1017 30.03 846 24.98 11.9 53.4 43 -0.1 31.9 0 0
11:51 1017 30.03 846 24.98 12.1 53.9 43 0.1 32.2 0 0
11:52 1017 30.03 846 24.98 12.2 53.9 41 -0.8 30.6 0 0
11:53 1017 30.03 846 24.98 12.1 53.7 43 0 32.1 0 0
11:54 1017 30.03 846 24.98 12.1 53.8 42 -0.4 31.3 0 0
11:55 1017 30.03 846 24.98 12.2 54 43 0.2 32.3 0 0
11:56 1017 30.03 846 24.98 12.4 54.2 44 0.6 33.1 0 0
11:57 1017 30.03 846 24.98 12.5 54.5 45 1 33.7 0 0
11:58 1017 30.03 846 24.98 12.8 55 49 2.5 36.5 0 0
11:59 1017 30.03 846 24.98 13 55.3 40 -0.3 31.5 0 0
12:00 1017 30.03 846 24.98 13 55.4 45 1.3 34.4 0 0
12:01 1017 30.03 846 24.98 13.1 55.5 46 1.9 35.5 0 0
12:02 1017 30.03 846 24.98 13.1 55.6 45 1.5 34.7 0 0
12:03 1017 30.03 846 24.98 13 55.4 49 2.6 36.6 0 0
12:04 1017 30.03 846 24.98 13 55.5 42 0.6 33.1 0 0
12:05 1017 30.03 846 24.98 13.1 55.6 48 2.5 36.5 0 0
12:06 1017 30.03 846 24.98 13.2 55.8 43 1.1 34 0 0
12:07 1017 30.03 846 24.98 13.2 55.7 51 3.2 37.7 0 0
12:08 1017 30.03 846 24.98 13.1 55.7 43 1 33.8 0 0
12:09 1017 30.03 846 24.98 13.2 55.7 45 1.5 34.7 0 0
12:10 1017 30.03 846 24.98 13.1 55.7 46 1.9 35.4 0 0
12:11 1017 30.03 846 24.98 13.1 55.6 49 2.7 36.9 0 0
12:12 1017 30.03 846 24.98 13.2 55.8 49 2.8 37.1 0 0
12:13 1017 30.03 846 24.98 13.3 56 42 0.8 33.4 0 0
12:14 1017 30.03 846 24.98 13.3 56 42 0.8 33.4 0 0
12:15 1017 30.03 846 24.98 13.2 55.8 41 0.2 32.3 0 0
12:16 1017 30.03 846 24.98 13.2 55.8 39 -0.3 31.5 0 0
12:17 1017 30.03 846 24.98 13.2 55.7 46 2 35.6 0 0
12:18 1017 30.03 846 24.98 13.2 55.8 46 1.9 35.4 0 0
12:19 1017 30.03 846 24.98 13.4 56 50 3.2 37.8 0 0
12:20 1017 30.03 846 24.98 13.5 56.2 44 1.7 35 0 0
12:21 1017 30.03 846 24.98 13.5 56.3 45 2 35.6 0 0
12:22 1017 30.03 846 24.98 13.5 56.2 42 0.7 33.3 0 0
12:23 1017 30.03 846 24.98 13.4 56.2 52 3.8 38.8 0 0
12:24 1017 30.03 846 24.98 13.4 56.2 40 0.3 32.6 0 0
12:25 1017 30.03 846 24.98 13.3 56 43 1 33.8 0 0
12:26 1017 30.03 846 24.98 13.2 55.7 43 0.8 33.5 0 0
12:27 1017 30.03 846 24.98 13.1 55.5 45 1.5 34.7 0 0
12:28 1017 30.03 846 24.98 13 55.3 45 1.5 34.7 0 0
12:29 1017 30.03 846 24.98 12.9 55.3 37 -1.2 29.8 0 0
12:30 1017 30.03 846 24.98 13 55.5 40 -0 32 0 0
12:31 1017 30.03 846 24.98 13.2 55.7 44 1.2 34.1 0 0
12:32 1017 30.03 846 24.98 13.4 56.1 40 0 32 0 0
12:33 1017 30.03 846 24.98 13.4 56.1 40 0.1 32.1 0 0
12:34 1017 30.03 846 24.98 13.5 56.2 42 0.9 33.7 0 0
12:35 1017 30.03 846 24.98 13.5 56.3 41 0.7 33.2 0 0
12:36 1017 30.03 846 24.98 13.4 56.2 37 -0.8 30.6 0 0
12:37 1017 30.03 846 24.98 13.4 56.1 38 -0.6 30.9 0 0
12:38 1017 30.03 846 24.98 13.4 56.2 51 3.4 38.2 0 0
12:39 1017 30.03 846 24.98 13.7 56.6 45 1.9 35.5 0 0
12:40 1017 30.03 846 24.98 13.8 56.8 48 2.9 37.3 0 0
12:41 1017 30.03 846 24.98 13.8 56.9 54 4.9 40.7 0 0
12:42 1017 30.03 846 24.98 13.9 57 37 -0.6 30.9 0 0
12:43 1017 30.03 846 24.98 13.7 56.7 47 2.8 37 0 0
12:44 1017 30.03 846 24.98 13.6 56.4 36 -1.1 30 0 0
12:45 1017 30.03 846 24.98 13.4 56.1 40 -0 31.9 0 0
12:46 1016 30 846 24.98 13.3 56 41 0.4 32.8 0 0
12:47 1016 30 846 24.98 13.4 56.2 47 2.3 36.2 0 0
12:48 1016 30 846 24.98 13.6 56.5 43 1.3 34.3 0 0
12:49 1016 30 846 24.98 13.7 56.7 41 0.6 33.1 0 0
12:50 1016 30 846 24.98 13.7 56.7 46 2.5 36.6 0 0
12:51 1016 30 846 24.98 13.7 56.7 51 3.7 38.7 0 0
12:52 1016 30 846 24.98 13.9 57 34 -1.8 28.7 0 0
12:53 1016 30 846 24.98 13.8 56.9 42 1.2 34.1 0 0
12:54 1016 30 846 24.98 13.9 57 43 1.7 35.1 0 0
12:55 1016 30 846 24.98 14.1 57.5 38 0 32 0 0
12:56 1016 30 846 24.98 14.1 57.4 35 -1.2 29.8 0 0
12:57 1016 30 846 24.98 13.9 57 35 -1.1 30.1 0 0
12:58 1016 30 846 24.98 13.6 56.6 42 1.1 34 0 0
12:59 1016 30 846 24.98 13.6 56.5 44 1.8 35.2 0 0
13:00 1016 30 846 24.98 13.8 56.8 38 -0.4 31.3 0 0
13:01 1016 30 846 24.98 13.6 56.6 46 2.3 36.2 0 0
13:02 1016 30 846 24.98 13.7 56.7 45 2.1 35.9 0 0
13:03 1016 30 846 24.98 13.7 56.6 43 1.4 34.4 0 0
13:04 1016 30 846 24.98 13.7 56.6 43 1.3 34.3 0 0
13:05 1016 30 846 24.98 13.8 56.8 37 -0.7 30.7 0 0
13:06 1016 30 846 24.98 13.8 56.9 36 -0.8 30.6 0 0
13:07 1016 30 846 24.98 13.9 56.9 35 -1.3 29.7 0 0
13:08 1016 30 846 24.98 13.9 57.1 44 2 35.6 0 0
13:09 1016 30 845 24.95 14 57.2 44 2.1 35.7 0 0
13:10 1016 30 845 24.95 14 57.3 36 -0.6 30.9 0 0
13:11 1016 30 845 24.95 14 57.2 37 -0.6 31 0 0
13:12 1016 30 845 24.95 13.9 57 42 1.2 34.1 0 0
13:13 1016 30 845 24.95 13.9 57 40 0.7 33.3 0 0
13:14 1016 30 845 24.95 14.1 57.3 34 -1.4 29.5 0 0
13:15 1016 30 845 24.95 13.9 57 46 2.6 36.7 0 0
13:16 1016 30 845 24.95 14 57.1 38 -0.2 31.7 0 0
13:17 1016 30 845 24.95 14 57.2 34 -1.5 29.3 0 0
13:18 1016 30 845 24.95 14 57.1 32 -2.3 27.8 0 0
13:19 1016 30 845 24.95 13.9 57 40 0.6 33.1 0 0
13:20 1016 30 845 24.95 14 57.1 36 -0.9 30.3 0 0
13:21 1016 30 845 24.95 14 57.1 36 -1 30.3 0 0
13:22 1016 30 845 24.95 14 57.2 33 -1.9 28.7 0 0
13:23 1016 30 845 24.95 14 57.3 39 0.4 32.8 0 0
13:24 1016 30 845 24.95 14.1 57.3 41 1.2 34.2 0 0
13:25 1016 30 845 24.95 14.2 57.5 47 3.2 37.8 0 0
13:26 1016 30 845 24.95 14.3 57.7 45 2.7 36.9 0 0
13:27 1016 30 845 24.95 14.4 57.8 42 1.7 35 0 0
13:28 1016 30 845 24.95 14.3 57.7 40 1 33.8 0 0
13:29 1016 30 845 24.95 14.3 57.7 46 2.8 37 0 0
13:30 1016 30 845 24.95 14.3 57.7 35 -0.7 30.8 0 0
13:31 1016 30 845 24.95 14.2 57.6 38 0 32 0 0
13:32 1016 30 845 24.95 14.2 57.5 38 0 32 0 0
13:33 1016 30 845 24.95 14.2 57.5 35 -1 30.1 0 0
13:34 1016 30 845 24.95 14.2 57.5 33 -1.7 29 0 0
13:35 1016 30 845 24.95 14.2 57.5 29 -3.7 25.3 0 0
13:36 1016 30 845 24.95 14.1 57.4 33 -1.8 28.8 0 0
13:37 1016 30 845 24.95 14.2 57.6 39 0.5 32.9 0 0
13:38 1016 30 845 24.95 14.4 57.9 31 -2.3 27.8 0 0
13:39 1016 30 845 24.95 14.4 57.9 34 -1.4 29.5 0 0
13:40 1016 30 845 24.95 14.4 58 44 2.3 36.2 0 0
13:41 1016 30 845 24.95 14.5 58.2 32 -1.7 28.9 0 0
13:42 1016 30 845 24.95 14.5 58.1 28 -3.6 25.5 0 0
13:43 1016 30 845 24.95 14.4 58 31 -2.3 27.9 0 0
13:44 1016 30 845 24.95 14.5 58 30 -3 26.6 0 0
13:45 1016 30 845 24.95 14.6 58.3 31 -2.1 28.2 0 0
13:46 1016 30 845 24.95 14.7 58.5 37 0.2 32.3 0 0
13:47 1016 30 845 24.95 14.9 58.8 40 1.6 34.9 0 0
13:48 1016 30 845 24.95 15 59 34 -0.5 31.1 0 0
13:49 1016 30 845 24.95 15.2 59.3 40 1.8 35.2 0 0
13:50 1016 30 845 24.95 15.1 59.2 36 0.4 32.7 0 0
13:51 1016 30 845 24.95 15.1 59.2 34 -0.7 30.8 0 0
13:52 1016 30 845 24.95 15.2 59.3 38 0.9 33.6 0 0
13:53 1016 30 845 24.95 15.2 59.3 35 -0.2 31.6 0 0
13:54 1016 30 845 24.95 15.3 59.5 41 2.2 35.9 0 0
13:55 1016 30 845 24.95 15.3 59.6 37 0.9 33.6 0 0
13:56 1016 30 845 24.95 15.2 59.3 30 -2.4 27.7 0 0
13:57 1016 30 845 24.95 15 58.9 30 -2.3 27.9 0 0
13:58 1016 30 845 24.95 14.9 58.8 34 -0.8 30.6 0 0
13:59 1016 30 845 24.95 14.8 58.7 26 -4.5 24 0 0
14:00 1016 30 845 24.95 14.6 58.4 32 -1.7 28.9 0 0
14:01 1016 30 845 24.95 14.7 58.4 28 -3.5 25.7 0 0
14:02 1016 30 845 24.95 14.6 58.3 31 -2.2 28.1 0 0
14:03 1016 30 845 24.95 14.6 58.4 38 0.6 33 0 0
14:04 1016 30 845 24.95 14.8 58.6 42 2.1 35.7 0 0
14:05 1016 30 845 24.95 14.9 58.7 43 2.5 36.5 0 0
14:06 1016 30 845 24.95 15.1 59.1 38 1 33.8 0 0
14:07 1016 30 845 24.95 15.3 59.5 27 -3.6 25.5 0 0
14:08 1016 30 845 24.95 15.3 59.5 35 0 32.1 0 0
14:09 1016 30 845 24.95 15.3 59.6 29 -2.6 27.3 0 0
14:10 1016 30 845 24.95 15.4 59.6 29 -2.5 27.6 0 0
14:11 1016 30 845 24.95 15.4 59.7 29 -2.4 27.6 0 0
14:12 1016 30 845 24.95 15.4 59.7 30 -1.8 28.8 0 0
14:13 1016 30 845 24.95 15.5 59.9 29 -2.4 27.6 0 0
14:14 1016 30 845 24.95 15.6 60 30 -1.9 28.6 0 0
14:15 1016 30 845 24.95 15.7 60.2 31 -1.2 29.8 0 0
14:16 1016 30 845 24.95 15.8 60.5 28 -2.8 27 0 0
14:17 1016 30 845 24.95 15.8 60.4 32 -1 30.3 0 0
14:18 1016 30 845 24.95 15.8 60.4 32 -0.7 30.7 0 0
14:19 1016 30 845 24.95 15.8 60.5 33 -0.4 31.3 0 0
14:20 1016 30 845 24.95 15.6 60.1 30 -1.8 28.8 0 0
14:21 1016 30 845 24.95 15.3 59.6 27 -3.4 25.8 0 0
14:22 1016 30 845 24.95 15.1 59.1 30 -2.2 28 0 0
14:23 1016 30 845 24.95 14.8 58.6 29 -3 26.7 0 0
14:24 1016 30 845 24.95 14.4 57.9 31 -2.5 27.6 0 0
14:25 1016 30 845 24.95 14.2 57.5 28 -3.8 25.1 0 0
14:26 1016 30 845 24.95 14.1 57.3 42 1.4 34.5 0 0
14:27 1016 30 845 24.95 14.3 57.7 29 -3.5 25.8 0 0
14:28 1016 30 845 24.95 14.4 57.9 27 -4 24.7 0 0
14:29 1016 30 845 24.95 14.6 58.2 31 -2.1 28.2 0 0
14:30 1016 30 845 24.95 14.8 58.6 31 -2.2 28 0 0
14:31 1016 30 845 24.95 15.2 59.3 31 -1.9 28.7 0 0
14:32 1016 30 845 24.95 15.4 59.8 27 -3.6 25.5 0 0
14:33 1016 30 845 24.95 15.4 59.7 25 -4.3 24.2 0 0
14:34 1016 30 845 24.95 15.2 59.3 33 -0.9 30.4 0 0
14:35 1016 30 845 24.95 15.1 59.1 28 -3.3 26.1 0 0
14:36 1016 30 845 24.95 15 59.1 31 -1.8 28.8 0 0
14:37 1016 30 845 24.95 15 59.1 25 -4.6 23.7 0 0
14:38 1016 30 845 24.95 14.9 58.8 25 -4.9 23.1 0 0
14:39 1016 30 845 24.95 14.9 58.7 32 -1.5 29.2 0 0
14:40 1016 30 845 24.95 15 59 31 -2.1 28.3 0 0
14:41 1016 30 845 24.95 15.1 59.3 26 -4 24.7 0 0
14:42 1016 30 845 24.95 15.1 59.2 26 -4.4 24.1 0 0
14:43 1016 30 845 24.95 15.2 59.3 29 -2.7 27.2 0 0
14:44 1016 30 845 24.95 15.2 59.3 26 -3.9 25 0 0
14:45 1016 30 845 24.95 15.1 59.3 26 -4 24.8 0 0
14:46 1016 30 845 24.95 15 59.1 37 0.4 32.8 0 0
14:47 1016 30 845 24.95 15 59.1 26 -4.1 24.6 0 0
14:48 1016 30 845 24.95 15 59 28 -3.1 26.4 0 0
14:49 1015 29.97 845 24.95 14.9 58.7 26 -4.2 24.4 0 0
14:50 1015 29.97 845 24.95 14.7 58.5 31 -2.2 28.1 0 0
14:51 1015 29.97 845 24.95 14.9 58.8 31 -2.1 28.2 0 0
14:52 1015 29.97 845 24.95 15.2 59.4 31 -1.9 28.6 0 0
14:53 1015 29.97 845 24.95 15.6 60 25 -4.6 23.8 0 0
14:54 1015 29.97 845 24.95 15.8 60.4 31 -1 30.2 0 0
14:55 1015 29.97 845 24.95 15.9 60.7 30 -1.4 29.4 0 0
14:56 1015 29.97 845 24.95 16 60.9 27 -3.1 26.4 0 0
14:57 1015 29.97 845 24.95 16 60.7 30 -1.4 29.5 0 0
14:58 1015 29.97 845 24.95 16 60.8 36 1.1 33.9 0 0
14:59 1015 29.97 845 24.95 16 60.9 29 -1.7 28.9 0 0
15:00 1015 29.97 845 24.95 16.1 60.9 29 -1.7 28.9 0 0
15:01 1015 29.97 845 24.95 16 60.8 27 -2.7 27.2 0 0
15:02 1015 29.97 845 24.95 15.8 60.5 33 -0.2 31.6 0 0
15:03 1015 29.97 845 24.95 15.7 60.3 27 -3.2 26.2 0 0
15:04 1015 29.97 845 24.95 15.6 60 31 -1.4 29.5 0 0
15:05 1015 29.97 845 24.95 15.6 60 30 -1.7 29 0 0
15:06 1015 29.97 845 24.95 15.6 60.1 32 -0.8 30.6 0 0
15:07 1015 29.97 845 24.95 15.7 60.3 34 0.2 32.3 0 0
15:08 1015 29.97 845 24.95 15.8 60.4 27 -3.3 26.1 0 0
15:09 1015 29.97 845 24.95 15.7 60.2 37 1.1 34 0 0
15:10 1015 29.97 844 24.92 15.7 60.3 30 -1.7 29 0 0
15:11 1015 29.97 845 24.95 15.8 60.4 27 -3 26.6 0 0
15:12 1015 29.97 844 24.92 15.7 60.2 33 -0.3 31.5 0 0
15:13 1015 29.97 845 24.95 15.8 60.4 34 0.1 32.2 0 0
15:14 1015 29.97 844 24.92 15.8 60.5 29 -2.3 27.9 0 0
15:15 1015 29.97 845 24.95 15.9 60.6 36 0.9 33.7 0 0
15:16 1015 29.97 844 24.92 15.9 60.6 34 0.1 32.2 0 0
15:17 1015 29.97 844 24.92 16 60.7 26 -3.2 26.2 0 0
15:18 1015 29.97 844 24.92 15.9 60.6 29 -1.9 28.6 0 0
15:19 1015 29.97 844 24.92 15.8 60.4 29 -1.9 28.5 0 0
15:20 1015 29.97 844 24.92 15.8 60.4 29 -2.2 28.1 0 0
15:21 1015 29.97 844 24.92 15.8 60.4 30 -1.6 29.1 0 0
15:22 1015 29.97 844 24.92 15.9 60.5 27 -2.8 27 0 0
15:23 1015 29.97 844 24.92 15.8 60.4 31 -1.4 29.5 0 0
15:24 1015 29.97 844 24.92 15.7 60.2 32 -0.8 30.5 0 0
15:25 1015 29.97 844 24.92 15.7 60.2 31 -1.5 29.4 0 0
15:26 1015 29.97 844 24.92 15.6 60.1 25 -4.4 24.1 0 0
15:27 1015 29.97 844 24.92 15.5 59.9 28 -3.1 26.5 0 0
15:28 1015 29.97 844 24.92 15.4 59.8 25 -4.6 23.8 0 0
15:29 1015 29.97 844 24.92 15.4 59.8 29 -2.6 27.3 0 0
15:30 1015 29.97 844 24.92 15.5 59.9 30 -2.1 28.2 0 0
15:31 1015 29.97 844 24.92 15.4 59.8 31 -1.3 29.6 0 0
15:32 1015 29.97 844 24.92 15.5 59.9 28 -2.7 27.1 0 0
15:33 1015 29.97 844 24.92 15.7 60.2 27 -3.3 26.1 0 0
15:34 1015 29.97 844 24.92 15.7 60.3 25 -4.2 24.5 0 0
15:35 1015 29.97 844 24.92 15.8 60.5 32 -0.9 30.4 0 0
15:36 1015 29.97 844 24.92 15.8 60.5 27 -3 26.5 0 0
15:37 1015 29.97 844 24.92 15.6 60.2 28 -2.8 26.9 0 0
15:38 1015 29.97 844 24.92 15.5 59.8 24 -4.9 23.2 0 0
15:39 1015 29.97 844 24.92 15.3 59.5 29 -2.4 27.6 0 0
15:40 1015 29.97 844 24.92 15.1 59.1 24 -5.2 22.7 0 0
15:41 1015 29.97 844 24.92 14.9 58.9 27 -3.7 25.4 0 0
15:42 1015 29.97 844 24.92 14.9 58.8 26 -4.4 24.1 0 0
15:43 1015 29.97 844 24.92 14.8 58.7 26 -4.7 23.6 0 0
15:44 1015 29.97 844 24.92 14.9 58.8 31 -2.1 28.2 0 0
15:45 1015 29.97 844 24.92 14.9 58.9 26 -4.4 24.1 0 0
15:46 1015 29.97 844 24.92 15.1 59.2 30 -2.4 27.8 0 0
15:47 1015 29.97 844 24.92 15.3 59.5 30 -2 28.5 0 0
15:48 1015 29.97 844 24.92 15.4 59.7 29 -2.6 27.3 0 0
15:49 1015 29.97 844 24.92 15.5 59.8 25 -4.2 24.5 0 0
15:50 1015 29.97 844 24.92 15.5 59.8 30 -1.8 28.7 0 0
15:51 1015 29.97 844 24.92 15.4 59.8 23 -5.2 22.6 0 0
15:52 1015 29.97 844 24.92 15.4 59.7 32 -1 30.3 0 0
15:53 1015 29.97 844 24.92 15.5 60 32 -0.9 30.3 0 0
15:54 1015 29.97 844 24.92 15.7 60.3 24 -4.6 23.7 0 0
15:55 1015 29.97 844 24.92 15.7 60.2 32 -1 30.1 0 0
15:56 1015 29.97 844 24.92 15.7 60.3 27 -3.1 26.4 0 0
15:57 1015 29.97 844 24.92 15.6 60.1 28 -2.5 27.5 0 0
15:58 1015 29.97 844 24.92 15.6 60 34 -0.3 31.5 0 0
15:59 1015 29.97 844 24.92 15.4 59.8 35 0.1 32.3 0 0
16:00 1015 29.97 844 24.92 15.3 59.5 25 -4.3 24.3 0 0
16:01 1015 29.97 844 24.92 15.1 59.2 27 -3.5 25.7 0 0
16:02 1015 29.97 844 24.92 15.1 59.1 32 -1.2 29.8 0 0
16:03 1015 29.97 844 24.92 15.2 59.3 34 -0.3 31.5 0 0
16:04 1015 29.97 844 24.92 15.3 59.6 29 -2.3 27.9 0 0
16:05 1015 29.97 844 24.92 15.5 59.8 28 -2.9 26.7 0 0
16:06 1015 29.97 844 24.92 15.5 59.9 27 -3.2 26.2 0 0
16:07 1015 29.97 844 24.92 15.6 60 28 -2.7 27.2 0 0
16:08 1015 29.97 844 24.92 15.6 60 31 -1.6 29.2 0 0
16:09 1015 29.97 844 24.92 15.7 60.3 34 -0.1 31.9 0 0
16:10 1015 29.97 844 24.92 15.8 60.4 29 -2.1 28.2 0 0
16:11 1015 29.97 844 24.92 15.8 60.4 34 -0 31.9 0 0
16:12 1015 29.97 844 24.92 15.8 60.4 31 -1.2 29.8 0 0
16:13 1015 29.97 844 24.92 15.6 60.1 34 -0.1 31.8 0 0
16:14 1015 29.97 844 24.92 15.5 59.8 31 -1.4 29.5 0 0
16:15 1015 29.97 844 24.92 15.3 59.6 31 -1.6 29.2 0 0
16:16 1015 29.97 844 24.92 15.2 59.4 32 -1.5 29.3 0 0
16:17 1015 29.97 844 24.92 15.1 59.2 37 0.6 33.1 0 0
16:18 1015 29.97 844 24.92 14.9 58.9 33 -1.1 30 0 0
16:19 1015 29.97 844 24.92 14.7 58.5 34 -0.9 30.4 0 0
16:20 1015 29.97 844 24.92 14.6 58.2 35 -0.8 30.6 0 0
16:21 1015 29.97 844 24.92 14.5 58 43 2 35.6 0 0
16:22 1015 29.97 844 24.92 14.3 57.7 39 0.8 33.4 0 0
16:23 1015 29.97 844 24.92 14.3 57.7 37 0 32 0 0
16:24 1015 29.97 844 24.92 14.3 57.7 37 -0.2 31.7 0 0
16:25 1015 29.97 844 24.92 14.3 57.8 37 -0 31.9 0 0
16:26 1015 29.97 844 24.92 14.3 57.7 37 -0.1 31.8 0 0
16:27 1015 29.97 844 24.92 14.3 57.7 33 -1.6 29.1 0 0
16:28 1015 29.97 844 24.92 14.2 57.6 39 0.6 33 0 0
16:29 1015 29.97 844 24.92 14.2 57.6 38 0.3 32.5 0 0
16:30 1015 29.97 844 24.92 14.2 57.5 37 -0.1 31.8 0 0
16:31 1015 29.97 844 24.92 14.2 57.5 37 -0.1 31.8 0 0
16:32 1015 29.97 844 24.92 14.2 57.5 39 0.5 32.8 0 0
16:33 1015 29.97 844 24.92 14.1 57.4 39 0.3 32.6 0 0
16:34 1015 29.97 844 24.92 14 57.3 38 0.2 32.3 0 0
16:35 1015 29.97 844 24.92 14 57.2 36 -0.9 30.4 0 0
16:36 1015 29.97 844 24.92 14 57.1 41 1 33.8 0 0
16:37 1015 29.97 844 24.92 13.9 57 38 0 32.1 0 0
16:38 1015 29.97 844 24.92 13.9 57 36 -0.8 30.6 0 0
16:39 1015 29.97 844 24.92 13.8 56.8 40 0.4 32.7 0 0
16:40 1015 29.97 844 24.92 13.7 56.7 40 0.4 32.6 0 0
16:41 1015 29.97 844 24.92 13.7 56.6 40 0.4 32.6 0 0
16:42 1015 29.97 844 24.92 13.7 56.7 41 0.9 33.5 0 0
16:43 1015 29.97 844 24.92 13.8 56.9 42 1.3 34.3 0 0
16:44 1015 29.97 844 24.92 13.7 56.7 44 1.7 35.1 0 0
16:45 1015 29.97 844 24.92 13.5 56.2 41 0.6 33.1 0 0
16:46 1015 29.97 844 24.92 13.1 55.5 37 -1.3 29.7 0 0
16:47 1015 29.97 845 24.95 12.9 55.2 33 -3.2 26.3 0 0
16:48 1015 29.97 844 24.92 13 55.4 33 -2.9 26.7 0 0
16:49 1015 29.97 844 24.92 13.2 55.7 32 -3.1 26.4 0 0
16:50 1015 29.97 844 24.92 13.3 55.9 38 -0.8 30.5 0 0
16:51 1015 29.97 844 24.92 13.4 56.1 35 -1.6 29.2 0 0
16:52 1015 29.97 844 24.92 13.5 56.4 41 0.5 32.9 0 0
16:53 1015 29.97 844 24.92 13.6 56.5 35 -1.6 29.2 0 0
16:54 1015 29.97 844 24.92 13.6 56.5 39 -0.1 31.9 0 0
16:55 1015 29.97 844 24.92 13.6 56.5 32 -2.6 27.3 0 0
16:56 1015 29.97 844 24.92 13.5 56.4 36 -1.2 29.9 0 0
16:57 1015 29.97 844 24.92 13.4 56.2 37 -0.9 30.4 0 0
16:58 1015 29.97 844 24.92 13.4 56.2 35 -1.8 28.8 0 0
16:59 1015 29.97 844 24.92 13.5 56.2 39 -0 31.9 0 0
17:00 1015 29.97 844 24.92 13.4 56.1 41 0.6 33 0 0
17:01 1015 29.97 844 24.92 13.3 55.9 40 -0 31.9 0 0
17:02 1015 29.97 844 24.92 13.2 55.8 45 1.5 34.7 0 0
17:03 1015 29.97 844 24.92 13.2 55.8 39 -0.2 31.6 0 0
17:04 1015 29.97 844 24.92 13.2 55.8 42 0.5 32.9 0 0
17:05 1015 29.97 844 24.92 13.3 55.9 36 -1.6 29.2 0 0
17:06 1015 29.97 844 24.92 13.4 56.1 43 1.2 34.2 0 0
17:07 1015 29.97 844 24.92 13.5 56.3 37 -0.8 30.5 0 0
17:08 1015 29.97 844 24.92 13.7 56.6 33 -2.4 27.6 0 0
17:09 1015 29.97 844 24.92 13.8 56.8 35 -1.2 29.9 0 0
17:10 1015 29.97 844 24.92 13.9 56.9 36 -0.8 30.6 0 0
17:11 1015 29.97 844 24.92 14 57.1 34 -1.7 28.9 0 0
17:12 1015 29.97 844 24.92 14.1 57.3 33 -1.8 28.7 0 0
17:13 1015 29.97 844 24.92 14.1 57.4 32 -2.4 27.7 0 0
17:14 1015 29.97 844 24.92 14.2 57.5 37 -0.4 31.4 0 0
17:15 1015 29.97 844 24.92 14.2 57.5 32 -2.3 27.9 0 0
17:16 1015 29.97 844 24.92 14.2 57.5 35 -1 30.1 0 0
17:17 1015 29.97 844 24.92 14.1 57.4 31 -2.5 27.5 0 0
17:18 1015 29.97 844 24.92 14.1 57.3 35 -1.2 29.9 0 0
17:19 1015 29.97 844 24.92 14.1 57.3 35 -1 30.2 0 0
17:20 1015 29.97 844 24.92 14.1 57.4 35 -1.1 30.1 0 0
17:21 1015 29.97 844 24.92 14.2 57.5 35 -0.8 30.6 0 0
17:22 1015 29.97 844 24.92 14.3 57.7 38 0.1 32.2 0 0
17:23 1015 29.97 844 24.92 14.4 57.9 33 -1.7 29 0 0
17:24 1015 29.97 844 24.92 14.5 58 33 -1.5 29.3 0 0
17:25 1015 29.97 844 24.92 14.5 58.2 35 -0.7 30.7 0 0
17:26 1015 29.97 844 24.92 14.5 58.1 35 -0.8 30.6 0 0
17:27 1015 29.97 844 24.92 14.6 58.2 35 -0.6 30.9 0 0
17:28 1015 29.97 844 24.92 14.7 58.4 40 1.2 34.2 0 0
17:29 1015 29.97 844 24.92 14.7 58.5 35 -0.3 31.5 0 0
17:30 1015 29.97 844 24.92 14.9 58.7 38 0.7 33.3 0 0
17:31 1015 29.97 844 24.92 15.1 59.1 33 -1 30.2 0 0
17:32 1015 29.97 844 24.92 15.2 59.3 41 2 35.6 0 0
17:33 1015 29.97 844 24.92 15.2 59.4 37 0.8 33.5 0 0
17:34 1015 29.97 844 24.92 15.2 59.4 36 0.5 32.8 0 0
17:35 1015 29.97 844 24.92 15.1 59.2 39 1.5 34.7 0 0
17:36 1015 29.97 844 24.92 15 59 32 -1.3 29.7 0 0
17:37 1015 29.97 844 24.92 14.9 58.9 35 -0.5 31.1 0 0
17:38 1015 29.97 844 24.92 14.9 58.9 38 0.8 33.5 0 0
17:39 1015 29.97 844 24.92 14.9 58.8 41 1.8 35.3 0 0
17:40 1015 29.97 844 24.92 14.8 58.7 36 -0.1 31.8 0 0
17:41 1015 29.97 844 24.92 14.6 58.3 40 1.1 34 0 0
17:42 1015 29.97 844 24.92 14.5 58 36 -0.4 31.3 0 0
17:43 1015 29.97 844 24.92 14.4 58 36 -0.5 31 0 0
17:44 1015 29.97 844 24.92 14.4 58 42 1.7 35.1 0 0
17:45 1015 29.97 844 24.92 14.4 58 40 1.1 33.9 0 0
17:46 1015 29.97 844 24.92 14.4 57.9 43 1.9 35.4 0 0
17:47 1015 29.97 844 24.92 14.4 57.9 38 0.2 32.4 0 0
17:48 1015 29.97 844 24.92 14.4 57.9 39 0.8 33.5 0 0
17:49 1015 29.97 844 24.92 14.4 57.9 41 1.3 34.4 0 0
17:50 1015 29.97 844 24.92 14.3 57.8 37 -0.1 31.9 0 0
17:51 1015 29.97 844 24.92 14.2 57.6 39 0.7 33.3 0 0
17:52 1015 29.97 844 24.92 14.1 57.5 39 0.6 33 0 0
17:53 1015 29.97 844 24.92 14.1 57.3 39 0.3 32.5 0 0
17:54 1014 29.94 844 24.92 13.9 57.1 43 1.5 34.7 0 0
17:55 1014 29.94 844 24.92 13.9 56.9 40 0.5 32.9 0 0
17:56 1014 29.94 844 24.92 13.8 56.8 42 1.1 34 0 0
17:57 1014 29.94 844 24.92 13.7 56.6 39 -0 32 0 0
17:58 1014 29.94 844 24.92 13.5 56.4 37 -0.9 30.4 0 0
17:59 1014 29.94 844 24.92 13.6 56.4 37 -0.6 30.9 0 0
18:00 1014 29.94 844 24.92 13.6 56.6 43 1.5 34.7 0 0
18:01 1014 29.94 844 24.92 13.9 56.9 44 2 35.6 0 0
18:02 1014 29.94 844 24.92 14.1 57.3 37 -0.3 31.5 0 0
18:03 1014 29.94 844 24.92 14.1 57.4 38 0 32.1 0 0
18:04 1014 29.94 843 24.89 14.1 57.4 37 -0.2 31.7 0 0
18:05 1014 29.94 844 24.92 14.2 57.5 43 1.7 35.1 0 0
18:06 1014 29.94 844 24.92 14.2 57.5 36 -0.5 31.1 0 0
18:07 1014 29.94 844 24.92 14.1 57.5 38 0.1 32.2 0 0
18:08 1014 29.94 844 24.92 14.1 57.4 37 -0.3 31.4 0 0
18:09 1014 29.94 844 24.92 14.1 57.3 39 0.3 32.6 0 0
18:10 1014 29.94 844 24.92 14.1 57.4 40 0.8 33.4 0 0
18:11 1014 29.94 844 24.92 14.1 57.3 38 -0 31.9 0 0
18:12 1014 29.94 843 24.89 14.1 57.4 40 0.7 33.2 0 0
18:13 1014 29.94 843 24.89 14 57.3 38 0.1 32.2 0 0
18:14 1014 29.94 843 24.89 14 57.2 39 0.3 32.6 0 0
18:15 1014 29.94 843 24.89 13.9 57.1 38 -0.1 31.9 0 0
18:16 1014 29.94 843 24.89 13.9 57 41 1 33.8 0 0
18:17 1014 29.94 843 24.89 13.8 56.9 40 0.5 32.8 0 0
18:18 1014 29.94 843 24.89 13.8 56.8 40 0.4 32.6 0 0
18:19 1014 29.94 843 24.89 13.7 56.7 38 -0.1 31.8 0 0
18:20 1014 29.94 843 24.89 13.7 56.6 38 -0.4 31.2 0 0
18:21 1014 29.94 843 24.89 13.6 56.5 40 0.5 32.8 0 0
18:22 1014 29.94 843 24.89 13.5 56.3 38 -0.4 31.4 0 0
18:23 1014 29.94 843 24.89 13.4 56 39 -0.2 31.6 0 0
18:24 1014 29.94 843 24.89 13.2 55.8 42 0.6 33 0 0
18:25 1014 29.94 843 24.89 13.1 55.6 44 1.2 34.1 0 0
18:26 1014 29.94 843 24.89 13 55.4 45 1.5 34.7 0 0
18:27 1014 29.94 843 24.89 13 55.4 41 0.2 32.3 0 0
18:28 1014 29.94 843 24.89 13 55.4 37 -1.2 29.8 0 0
18:29 1014 29.94 843 24.89 13.1 55.6 38 -0.9 30.3 0 0
18:30 1014 29.94 843 24.89 13.1 55.5 37 -1.3 29.6 0 0
18:31 1014 29.94 843 24.89 13.1 55.5 39 -0.6 30.9 0 0
18:32 1014 29.94 843 24.89 13 55.5 38 -0.7 30.7 0 0
18:33 1014 29.94 844 24.92 13.1 55.5 41 0 32.1 0 0
18:34 1014 29.94 844 24.92 13.2 55.7 42 0.6 33.2 0 0
18:35 1014 29.94 843 24.89 13.3 55.9 39 -0.3 31.4 0 0
18:36 1014 29.94 843 24.89 13.3 56 40 0.2 32.4 0 0
18:37 1014 29.94 844 24.92 13.5 56.2 41 0.7 33.2 0 0
18:38 1014 29.94 844 24.92 13.5 56.3 42 0.8 33.5 0 0
18:39 1014 29.94 844 24.92 13.5 56.2 37 -0.8 30.5 0 0
18:40 1014 29.94 844 24.92 13.5 56.2 38 -0.6 30.9 0 0
18:41 1014 29.94 844 24.92 13.4 56.1 38 -0.4 31.2 0 0
18:42 1014 29.94 843 24.89 13.3 56 38 -0.7 30.8 0 0
18:43 1014 29.94 843 24.89 13.2 55.7 38 -0.6 30.9 0 0
18:44 1014 29.94 843 24.89 13.1 55.5 38 -0.8 30.6 0 0
18:45 1014 29.94 843 24.89 13 55.3 39 -0.7 30.7 0 0
18:46 1014 29.94 844 24.92 12.9 55.3 38 -1 30.2 0 0
18:47 1014 29.94 843 24.89 13 55.3 40 -0.2 31.6 0 0
18:48 1014 29.94 844 24.92 12.9 55.3 44 1 33.8 0 0
18:49 1014 29.94 844 24.92 12.9 55.1 45 1.2 34.2 0 0
18:50 1014 29.94 844 24.92 12.7 54.9 43 0.7 33.2 0 0
18:51 1014 29.94 844 24.92 12.7 54.9 44 0.8 33.5 0 0
18:52 1014 29.94 844 24.92 12.7 54.9 44 0.8 33.4 0 0
18:53 1014 29.94 844 24.92 12.8 55 45 1.1 33.9 0 0
18:54 1014 29.94 844 24.92 13 55.4 43 0.9 33.6 0 0
18:55 1014 29.94 844 24.92 13.1 55.6 41 0.2 32.3 0 0
18:56 1014 29.94 844 24.92 13.2 55.8 46 1.9 35.4 0 0
18:57 1014 29.94 844 24.92 13.4 56 48 2.6 36.7 0 0
18:58 1014 29.94 844 24.92 13.6 56.5 42 1 33.9 0 0
18:59 1014 29.94 844 24.92 13.9 56.9 43 1.5 34.6 0 0
19:00 1014 29.94 844 24.92 14.1 57.3 44 2.1 35.9 0 0
19:01 1014 29.94 844 24.92 14.2 57.6 43 2 35.7 0 0
19:02 1014 29.94 844 24.92 14.3 57.8 36 -0.3 31.4 0 0
19:03 1014 29.94 844 24.92 14.4 58 36 -0.5 31.2 0 0
19:04 1014 29.94 844 24.92 14.6 58.2 37 0.3 32.5 0 0
19:05 1014 29.94 844 24.92 14.7 58.4 35 -0.4 31.2 0 0
19:06 1014 29.94 843 24.89 14.7 58.4 40 1.2 34.2 0 0
19:07 1014 29.94 844 24.92 14.6 58.3 34 -0.8 30.5 0 0
19:08 1014 29.94 843 24.89 14.5 58.1 33 -1.6 29.2 0 0
19:09 1014 29.94 843 24.89 14.4 58 43 2.2 35.9 0 0
19:10 1014 29.94 843 24.89 14.3 57.8 35 -0.9 30.4 0 0
19:11 1014 29.94 843 24.89 14.3 57.7 37 -0.2 31.7 0 0
19:12 1014 29.94 843 24.89 14.2 57.6 36 -0.5 31.1 0 0
19:13 1014 29.94 843 24.89 14.3 57.7 33 -1.8 28.7 0 0
19:14 1014 29.94 843 24.89 14.3 57.7 37 -0.1 31.8 0 0
19:15 1014 29.94 843 24.89 14.3 57.7 34 -1.4 29.4 0 0
19:16 1014 29.94 843 24.89 14.3 57.8 32 -1.9 28.6 0 0
19:17 1014 29.94 843 24.89 14.2 57.6 34 -1.2 29.8 0 0
19:18 1014 29.94 843 24.89 14.2 57.5 33 -1.9 28.6 0 0
19:19 1014 29.94 843 24.89 14.1 57.3 36 -0.7 30.8 0 0
19:20 1014 29.94 843 24.89 14 57.2 39 0.2 32.4 0 0
19:21 1014 29.94 843 24.89 13.9 57.1 35 -1.1 30 0 0
19:22 1014 29.94 843 24.89 13.9 57 39 0.2 32.4 0 0
19:23 1014 29.94 843 24.89 13.9 57 35 -1.4 29.4 0 0
19:24 1014 29.94 843 24.89 14 57.1 43 1.6 34.9 0 0
19:25 1014 29.94 843 24.89 14 57.2 41 1.1 34.1 0 0
19:26 1014 29.94 843 24.89 13.8 56.8 43 1.6 34.8 0 0
19:27 1014 29.94 843 24.89 13.6 56.5 45 2.1 35.8 0 0
19:28 1014 29.94 843 24.89 13.5 56.2 45 1.9 35.4 0 0
19:29 1014 29.94 843 24.89 13.4 56.1 44 1.5 34.7 0 0
19:30 1014 29.94 843 24.89 13.3 55.9 45 1.6 35 0 0
19:31 1014 29.94 843 24.89 13.2 55.8 46 2.1 35.7 0 0
19:32 1014 29.94 843 24.89 13.1 55.6 45 1.7 35 0 0
19:33 1014 29.94 843 24.89 13.1 55.6 49 2.6 36.8 0 0
19:34 1014 29.94 844 24.92 13 55.4 50 2.8 37.1 0 0
19:35 1014 29.94 844 24.92 12.8 55 48 2.1 35.8 0 0
19:36 1014 29.94 844 24.92 12.6 54.6 47 1.5 34.7 0 0
19:37 1014 29.94 843 24.89 12.4 54.2 46 1.1 34 0 0
19:38 1014 29.94 843 24.89 12.3 54.1 47 1.2 34.2 0 0
19:39 1014 29.94 843 24.89 12.1 53.8 48 1.5 34.8 0 0
19:40 1014 29.94 844 24.92 11.9 53.3 50 1.7 35.1 0 0
19:41 1014 29.94 843 24.89 11.6 52.9 50 1.7 35.1 0 0
19:42 1014 29.94 843 24.89 11.4 52.5 50 1.4 34.5 0 0
19:43 1014 29.94 844 24.92 11.1 52 51 1.5 34.7 0 0
19:44 1014 29.94 843 24.89 10.9 51.5 45 -0.4 31.2 0 0
19:45 1014 29.94 843 24.89 11.2 52.2 43 -0.9 30.4 0 0
19:46 1014 29.94 843 24.89 11.6 52.9 46 0.3 32.6 0 0
19:47 1014 29.94 843 24.89 11.6 52.9 46 0.5 32.9 0 0
19:48 1014 29.94 843 24.89 11.6 52.8 46 0.3 32.5 0 0
19:49 1014 29.94 843 24.89 11.5 52.7 43 -0.8 30.6 0 0
19:50 1014 29.94 843 24.89 11.5 52.6 42 -0.8 30.5 0 0
19:51 1014 29.94 843 24.89 11.5 52.7 44 -0.4 31.4 0 0
19:52 1014 29.94 843 24.89 11.5 52.7 43 -0.7 30.8 0 0
19:53 1014 29.94 843 24.89 11.5 52.7 42 -0.8 30.6 0 0
19:54 1014 29.94 843 24.89 11.5 52.7 44 -0.4 31.3 0 0
19:55 1014 29.94 843 24.89 11.4 52.5 45 -0.1 31.8 0 0
19:56 1014 29.94 843 24.89 11.2 52.1 45 -0.2 31.6 0 0
19:57 1014 29.94 843 24.89 11 51.8 41 -1.8 28.8 0 0
19:58 1014 29.94 843 24.89 11.1 51.9 42 -1.4 29.5 0 0
19:59 1014 29.94 843 24.89 11.1 52 42 -1.1 30 0 0
20:00 1014 29.94 843 24.89 11.1 52 41 -1.5 29.3 0 0
20:01 1014 29.94 843 24.89 11.2 52.1 41 -1.5 29.3 0 0
20:02 1014 29.94 843 24.89 11.2 52.2 43 -1 30.3 0 0
20:03 1014 29.94 843 24.89 11.1 52 42 -1.3 29.7 0 0
20:04 1014 29.94 843 24.89 11 51.8 44 -0.8 30.5 0 0
20:05 1014 29.94 843 24.89 10.8 51.5 43 -1.2 29.9 0 0
20:06 1014 29.94 843 24.89 10.7 51.2 45 -0.8 30.5 0 0
20:07 1014 29.94 843 24.89 10.5 51 46 -0.6 30.9 0 0
20:08 1014 29.94 843 24.89 10.4 50.6 46 -0.7 30.7 0 0
20:09 1014 29.94 843 24.89 10.4 50.6 40 -2.5 27.6 0 0
20:10 1014 29.94 843 24.89 10.7 51.2 40 -2.2 28 0 0
20:11 1014 29.94 843 24.89 10.9 51.6 40 -2.1 28.1 0 0
20:12 1014 29.94 843 24.89 10.9 51.6 43 -1.2 29.8 0 0
20:13 1014 29.94 843 24.89 10.7 51.2 44 -1 30.2 0 0
20:14 1014 29.94 843 24.89 10.4 50.6 44 -1.3 29.7 0 0
20:15 1014 29.94 843 24.89 10.2 50.3 44 -1.4 29.4 0 0
20:16 1014 29.94 843 24.89 10.1 50.2 44 -1.4 29.5 0 0
20:17 1014 29.94 843 24.89 10.1 50.1 45 -1.2 29.9 0 0
20:18 1014 29.94 844 24.92 9.9 49.8 47 -0.9 30.4 0 0
20:19 1014 29.94 844 24.92 9.7 49.4 47 -0.9 30.3 0 0
20:20 1014 29.94 844 24.92 9.4 49 48 -1 30.3 0 0
20:21 1014 29.94 844 24.92 9.3 48.7 45 -2.1 28.3 0 0
20:22 1014 29.94 844 24.92 9.4 49 47 -1.3 29.7 0 0
20:23 1014 29.94 844 24.92 9.4 48.8 48 -1.2 29.9 0 0
20:24 1014 29.94 844 24.92 9.2 48.6 44 -2.2 28 0 0
20:25 1014 29.94 844 24.92 9.5 49.2 42 -2.6 27.3 0 0
20:26 1014 29.94 844 24.92 10.1 50.1 39 -3.4 26 0 0
20:27 1014 29.94 844 24.92 10.7 51.3 37 -3.2 26.2 0 0
20:28 1014 29.94 844 24.92 11.1 52.1 37 -2.9 26.7 0 0
20:29 1014 29.94 844 24.92 11.3 52.3 39 -2.2 28 0 0
20:30 1014 29.94 844 24.92 11.2 52.2 39 -2.2 28.1 0 0
20:31 1014 29.94 844 24.92 11.1 52 40 -2.1 28.2 0 0
20:32 1014 29.94 844 24.92 10.9 51.5 41 -1.8 28.7 0 0
20:33 1014 29.94 844 24.92 10.6 51 43 -1.5 29.2 0 0
20:34 1014 29.94 844 24.92 10.2 50.4 43 -1.7 28.9 0 0
20:35 1014 29.94 844 24.92 10 50 43 -2.1 28.2 0 0
20:36 1014 29.94 844 24.92 9.8 49.7 43 -2.1 28.1 0 0
20:37 1014 29.94 844 24.92 9.7 49.5 44 -2.1 28.3 0 0
20:38 1014 29.94 844 24.92 9.7 49.4 44 -1.9 28.5 0 0
20:39 1014 29.94 844 24.92 9.6 49.3 42 -2.8 27 0 0
20:40 1014 29.94 844 24.92 9.7 49.5 42 -2.7 27.2 0 0
20:41 1014 29.94 844 24.92 9.8 49.6 43 -2.1 28.2 0 0
20:42 1014 29.94 844 24.92 9.7 49.4 43 -2.2 28 0 0
20:43 1014 29.94 844 24.92 9.6 49.2 43 -2.3 27.9 0 0
20:44 1015 29.97 844 24.92 9.5 49.1 44 -2.1 28.3 0 0
20:45 1015 29.97 844 24.92 9.3 48.7 42 -2.9 26.7 0 0
20:46 1014 29.94 844 24.92 9.4 48.9 40 -3.6 25.5 0 0
20:47 1014 29.94 844 24.92 10 50 40 -3 26.5 0 0
20:48 1015 29.97 844 24.92 10.3 50.5 40 -2.8 27 0 0
20:49 1015 29.97 844 24.92 10.4 50.7 40 -2.6 27.4 0 0
20:50 1015 29.97 844 24.92 10.4 50.7 41 -2.3 27.9 0 0
20:51 1015 29.97 844 24.92 10.2 50.4 42 -2.1 28.1 0 0
20:52 1015 29.97 844 24.92 10 50 41 -2.5 27.5 0 0
20:53 1015 29.97 844 24.92 9.9 49.9 43 -2.1 28.2 0 0
20:54 1015 29.97 844 24.92 9.8 49.6 43 -2.1 28.3 0 0
20:55 1015 29.97 844 24.92 9.7 49.4 44 -2 28.4 0 0
20:56 1015 29.97 844 24.92 9.5 49.1 46 -1.6 29.1 0 0
20:57 1015 29.97 844 24.92 9.2 48.5 45 -2 28.3 0 0
20:58 1015 29.97 844 24.92 9.1 48.4 45 -2.2 28.1 0 0
20:59 1015 29.97 844 24.92 9.1 48.5 44 -2.3 27.8 0 0
21:00 1015 29.97 844 24.92 9.3 48.8 43 -2.7 27.2 0 0
21:01 1015 29.97 844 24.92 9.5 49.1 42 -2.7 27.2 0 0
21:02 1015 29.97 844 24.92 9.6 49.3 42 -2.7 27.1 0 0
21:03 1015 29.97 844 24.92 9.8 49.6 42 -2.5 27.5 0 0
21:04 1015 29.97 844 24.92 9.9 49.8 42 -2.5 27.6 0 0
21:05 1015 29.97 844 24.92 10 50 42 -2.2 28.1 0 0
21:06 1015 29.97 844 24.92 10 50 42 -2.3 27.8 0 0
21:07 1015 29.97 844 24.92 10 50.1 42 -2.4 27.7 0 0
21:08 1015 29.97 844 24.92 10.1 50.1 42 -2.2 28.1 0 0
21:09 1015 29.97 844 24.92 10 49.9 43 -2.1 28.2 0 0
21:10 1015 29.97 844 24.92 9.9 49.8 42 -2.4 27.8 0 0
21:11 1015 29.97 844 24.92 9.9 49.7 43 -2.1 28.3 0 0
21:12 1015 29.97 844 24.92 9.7 49.4 43 -2.3 27.9 0 0
21:13 1015 29.97 844 24.92 9.6 49.2 44 -2 28.3 0 0
21:14 1015 29.97 844 24.92 9.5 49 43 -2.3 27.8 0 0
21:15 1015 29.97 844 24.92 9.5 49 43 -2.4 27.8 0 0
21:16 1015 29.97 844 24.92 9.4 49 43 -2.4 27.8 0 0
21:17 1015 29.97 844 24.92 9.4 48.9 45 -2 28.5 0 0
21:18 1015 29.97 844 24.92 9.3 48.7 45 -2 28.4 0 0
21:19 1015 29.97 844 24.92 9.1 48.4 45 -2.1 28.2 0 0
21:20 1015 29.97 844 24.92 9.1 48.4 44 -2.5 27.5 0 0
21:21 1015 29.97 844 24.92 9.3 48.7 44 -2.2 28.1 0 0
21:22 1015 29.97 844 24.92 9.3 48.7 45 -2.1 28.2 0 0
21:23 1015 29.97 844 24.92 9.2 48.6 46 -1.7 28.9 0 0
21:24 1015 29.97 844 24.92 9.1 48.3 47 -1.6 29.1 0 0
21:25 1015 29.97 844 24.92 8.9 47.9 48 -1.4 29.4 0 0
21:26 1015 29.97 844 24.92 8.7 47.6 49 -1.5 29.3 0 0
21:27 1015 29.97 844 24.92 8.5 47.3 49 -1.6 29.2 0 0
21:28 1015 29.97 844 24.92 8.4 47.2 50 -1.3 29.6 0 0
21:29 1015 29.97 844 24.92 8.3 46.9 50 -1.4 29.5 0 0
21:30 1015 29.97 844 24.92 8.2 46.7 51 -1.4 29.5 0 0
21:31 1015 29.97 844 24.92 8.1 46.6 50 -1.6 29.2 0 0
21:32 1015 29.97 844 24.92 8.2 46.7 50 -1.7 29 0 0
21:33 1015 29.97 844 24.92 8.2 46.8 51 -1.4 29.4 0 0
21:34 1015 29.97 844 24.92 8.2 46.7 51 -1.5 29.4 0 0
21:35 1015 29.97 844 24.92 8.2 46.7 49 -1.8 28.7 0 0
21:36 1015 29.97 844 24.92 8.3 46.9 48 -2 28.4 0 0
21:37 1015 29.97 844 24.92 8.5 47.3 48 -1.7 28.9 0 0
21:38 1015 29.97 844 24.92 8.7 47.6 49 -1.5 29.3 0 0
21:39 1015 29.97 844 24.92 8.7 47.7 49 -1.5 29.4 0 0
21:40 1015 29.97 844 24.92 8.7 47.7 48 -1.5 29.3 0 0
21:41 1015 29.97 844 24.92 8.8 47.8 49 -1.4 29.4 0 0
21:42 1015 29.97 844 24.92 8.8 47.8 48 -1.5 29.2 0 0
21:43 1015 29.97 844 24.92 8.9 47.9 47 -1.8 28.8 0 0
21:44 1015 29.97 844 24.92 8.9 48.1 47 -1.8 28.7 0 0
21:45 1015 29.97 844 24.92 9.1 48.4 46 -1.8 28.7 0 0
21:46 1015 29.97 844 24.92 9.3 48.7 46 -1.8 28.8 0 0
21:47 1015 29.97 844 24.92 9.5 49 45 -1.7 28.9 0 0
21:48 1015 29.97 844 24.92 9.6 49.2 46 -1.4 29.4 0 0
21:49 1015 29.97 844 24.92 9.6 49.3 46 -1.6 29.2 0 0
21:50 1015 29.97 844 24.92 9.7 49.4 45 -1.6 29.1 0 0
21:51 1015 29.97 844 24.92 9.8 49.7 44 -1.8 28.7 0 0
21:52 1015 29.97 844 24.92 10 49.9 42 -2.3 27.9 0 0
21:53 1015 29.97 845 24.95 10.1 50.2 42 -2.2 28 0 0
21:54 1016 30 845 24.95 10.4 50.6 45 -0.9 30.4 0 0
21:55 1016 30 845 24.95 10.2 50.4 48 -0.2 31.6 0 0
21:56 1016 30 845 24.95 9.9 49.7 49 -0.2 31.6 0 0
21:57 1016 30 845 24.95 9.6 49.4 51 0 32 0 0
21:58 1016 30 845 24.95 9.6 49.2 53 0.5 32.9 0 0
21:59 1016 30 845 24.95 9.4 48.9 53 0.4 32.7 0 0
22:00 1016 30 845 24.95 9.3 48.7 54 0.4 32.7 0 0
22:01 1016 30 845 24.95 9.2 48.6 54 0.4 32.7 0 0
22:02 1016 30 845 24.95 9.2 48.5 56 0.8 33.4 0 0
22:03 1016 30 845 24.95 9 48.3 57 0.9 33.7 0 0
22:04 1016 30 845 24.95 8.9 48.1 57 0.8 33.5 0 0
22:05 1016 30 845 24.95 9 48.2 55 0.4 32.7 0 0
22:06 1016 30 846 24.98 9.2 48.6 54 0.4 32.7 0 0
22:07 1017 30.03 846 24.98 9.3 48.8 55 0.8 33.5 0 0
22:08 1017 30.03 846 24.98 9.3 48.8 56 0.9 33.6 0 0
22:09 1017 30.03 846 24.98 9.2 48.6 56 0.8 33.5 0 0
22:10 1017 30.03 846 24.98 9.2 48.5 57 1 33.8 0 0
22:11 1017 30.03 846 24.98 9.1 48.3 58 1.2 34.2 0 0
22:12 1017 30.03 846 24.98 9 48.2 58 1.3 34.3 0 0
22:13 1017 30.03 846 24.98 8.9 48.1 59 1.3 34.4 0 0
22:14 1017 30.03 846 24.98 8.9 48 59 1.3 34.3 0 0
22:15 1017 30.03 846 24.98 8.8 47.8 59 1.3 34.3 0 0
22:16 1017 30.03 846 24.98 8.8 47.8 60 1.5 34.8 0 0
22:17 1017 30.03 846 24.98 8.7 47.6 61 1.6 34.8 0 0
22:18 1017 30.03 846 24.98 8.6 47.4 62 1.6 35 0 0
22:19 1017 30.03 846 24.98 8.5 47.3 62 1.6 34.9 0 0
22:20 1017 30.03 846 24.98 8.5 47.3 61 1.5 34.7 0 0
22:21 1017 30.03 846 24.98 8.5 47.3 62 1.6 34.8 0 0
22:22 1017 30.03 846 24.98 8.5 47.3 63 1.9 35.4 0 0
22:23 1017 30.03 846 24.98 8.4 47.2 63 1.7 35.1 0 0
22:24 1017 30.03 846 24.98 8.4 47.2 63 1.8 35.2 0 0
22:25 1017 30.03 846 24.98 8.4 47.1 63 1.8 35.3 0 0
22:26 1017 30.03 846 24.98 8.3 47 63 1.7 35.1 0 0
22:27 1017 30.03 846 24.98 8.3 47 64 2 35.6 0 0
22:28 1017 30.03 846 24.98 8.3 47 65 2.1 35.8 0 0
22:29 1017 30.03 846 24.98 8.2 46.8 66 2.2 36 0 0
22:30 1017 30.03 846 24.98 8.1 46.7 68 2.6 36.6 0 0
22:31 1017 30.03 846 24.98 8 46.4 70 2.9 37.1 0 0
22:32 1017 30.03 847 25.01 7.8 46.1 71 2.8 37.1 0 0
22:33 1018 30.06 847 25.01 7.7 45.9 72 3 37.3 0 0
22:34 1018 30.06 847 25.01 7.6 45.8 73 3.1 37.6 0 0
22:35 1018 30.06 847 25.01 7.5 45.5 72 2.8 37 0 0
22:36 1018 30.06 847 25.01 7.4 45.4 74 3.1 37.5 0 0
22:37 1018 30.06 847 25.01 7.3 45.2 75 3.1 37.6 0 0
22:38 1018 30.06 847 25.01 7.2 45 75 3.1 37.7 0 0
22:39 1018 30.06 847 25.01 7.1 44.9 76 3.3 37.9 0 0
22:40 1018 30.06 847 25.01 7.1 44.7 76 3.2 37.8 0 0
22:41 1018 30.06 847 25.01 6.9 44.5 79 3.6 38.4 0 0
22:42 1018 30.06 847 25.01 6.8 44.3 79 3.4 38.2 0 0
22:43 1018 30.06 847 25.01 6.8 44.2 78 3.3 37.9 0 0
22:44 1018 30.06 847 25.01 6.8 44.3 79 3.4 38.1 0 0
22:45 1018 30.06 847 25.01 6.8 44.2 79 3.3 38 0 0
22:46 1018 30.06 847 25.01 6.8 44.2 80 3.6 38.4 0 0
22:47 1018 30.06 847 25.01 6.7 44.1 81 3.6 38.5 0 0
22:48 1018 30.06 848 25.04 6.7 44.1 79 3.4 38 0 0
22:49 1018 30.06 848 25.04 6.7 44 77 3 37.4 0 0
22:50 1018 30.06 848 25.04 6.8 44.2 78 3.3 37.9 0 0
22:51 1018 30.06 848 25.04 6.8 44.2 80 3.6 38.4 0 0
22:52 1019 30.09 848 25.04 6.8 44.2 80 3.5 38.3 0 0
22:53 1019 30.09 848 25.04 6.7 44.1 80 3.5 38.3 0 0
22:54 1019 30.09 848 25.04 6.7 44 81 3.6 38.5 0 0
22:55 1019 30.09 848 25.04 6.7 44.1 81 3.7 38.7 0 0
22:56 1019 30.09 848 25.04 6.7 44 82 3.8 38.8 0 0
22:57 1019 30.09 848 25.04 6.6 44 82 3.8 38.8 0 0
22:58 1019 30.09 848 25.04 6.6 43.9 81 3.6 38.5 0 0
22:59 1019 30.09 848 25.04 6.7 44 80 3.5 38.3 0 0
23:00 1019 30.09 848 25.04 6.7 44.1 80 3.5 38.3 0 0
23:01 1019 30.09 848 25.04 6.8 44.2 80 3.6 38.5 0 0
23:02 1019 30.09 848 25.04 6.8 44.2 81 3.8 38.8 0 0
23:03 1019 30.09 848 25.04 6.8 44.2 82 3.8 38.9 0 0
23:04 1019 30.09 848 25.04 6.7 44.1 79 3.4 38.1 0 0
23:05 1019 30.09 848 25.04 6.8 44.2 79 3.4 38.2 0 0
23:06 1019 30.09 848 25.04 6.8 44.3 79 3.4 38.1 0 0
23:07 1019 30.09 848 25.04 6.9 44.4 78 3.4 38.1 0 0
23:08 1019 30.09 848 25.04 6.9 44.5 76 3 37.4 0 0
23:09 1019 30.09 848 25.04 7 44.6 79 3.6 38.4 0 0
23:10 1019 30.09 848 25.04 7 44.6 78 3.5 38.3 .2 0.008
23:11 1019 30.09 848 25.04 6.9 44.5 80 3.7 38.6 0 0
23:12 1019 30.09 848 25.04 6.9 44.4 80 3.8 38.8 0 0
23:13 1019 30.09 848 25.04 6.8 44.3 81 3.8 38.8 0 0
23:14 1019 30.09 848 25.04 6.8 44.2 81 3.8 38.8 0 0
23:15 1019 30.09 848 25.04 6.7 44.1 82 3.9 39 0 0
23:16 1019 30.09 848 25.04 6.7 44 83 4 39.3 0 0
23:17 1019 30.09 848 25.04 6.6 43.8 83 4 39.2 .2 0.008
23:18 1019 30.09 848 25.04 6.5 43.7 83 3.8 38.9 0 0
23:19 1019 30.09 848 25.04 6.5 43.7 83 3.8 38.9 0 0
23:20 1019 30.09 848 25.04 6.5 43.7 84 4 39.1 0 0
23:21 1019 30.09 848 25.04 6.5 43.6 85 4.1 39.3 0 0
23:22 1019 30.09 848 25.04 6.4 43.5 84 4 39.1 0 0
23:23 1019 30.09 848 25.04 6.4 43.5 84 3.9 39 0 0
23:24 1019 30.09 848 25.04 6.4 43.6 83 3.8 38.8 0 0
23:25 1019 30.09 848 25.04 6.5 43.6 84 3.9 39 0 0
23:26 1019 30.09 848 25.04 6.5 43.6 84 3.9 39 0 0
23:27 1019 30.09 848 25.04 6.5 43.6 83 3.9 39 0 0
23:28 1019 30.09 848 25.04 6.4 43.6 84 3.9 39 0 0
23:29 1019 30.09 848 25.04 6.4 43.5 83 3.8 38.8 0 0
23:30 1019 30.09 848 25.04 6.4 43.6 83 3.8 38.9 0 0
23:31 1019 30.09 848 25.04 6.4 43.5 83 3.7 38.6 0 0
23:32 1019 30.09 848 25.04 6.5 43.6 83 3.7 38.7 0 0
23:33 1019 30.09 848 25.04 6.5 43.6 83 3.8 38.9 0 0
23:34 1019 30.09 848 25.04 6.5 43.6 84 3.9 39.1 0 0
23:35 1019 30.09 848 25.04 6.4 43.6 84 3.9 39 0 0
23:36 1019 30.09 848 25.04 6.4 43.6 83 3.8 38.9 .2 0.008
23:37 1019 30.09 848 25.04 6.4 43.6 83 3.7 38.7 0 0
23:38 1019 30.09 848 25.04 6.4 43.6 83 3.8 38.9 0 0
23:39 1019 30.09 848 25.04 6.4 43.6 81 3.4 38.2 0 0
23:40 1019 30.09 848 25.04 6.5 43.6 82 3.6 38.5 0 0
23:41 1019 30.09 848 25.04 6.4 43.6 82 3.6 38.4 0 0
23:42 1019 30.09 848 25.04 6.4 43.6 83 3.8 38.8 0 0
23:43 1019 30.09 848 25.04 6.3 43.4 84 3.8 38.8 0 0
23:44 1019 30.09 848 25.04 6.3 43.4 84 3.8 38.8 0 0
23:45 1019 30.09 848 25.04 6.3 43.3 85 4 39.3 0 0
23:46 1019 30.09 848 25.04 6.2 43.1 86 4.1 39.3 0 0
23:47 1019 30.09 848 25.04 6.1 43 87 4.1 39.4 0 0
23:48 1019 30.09 848 25.04 6.1 42.9 87 4 39.3 0 0
23:49 1019 30.09 848 25.04 6 42.9 87 4.1 39.3 .4 0.016
23:50 1019 30.09 848 25.04 6 42.8 87 4.1 39.4 0 0
23:51 1019 30.09 848 25.04 6 42.8 88 4.2 39.5 0 0
23:52 1019 30.09 848 25.04 6 42.8 88 4.2 39.5 0 0
23:53 1019 30.09 848 25.04 6 42.7 88 4.2 39.5 0 0
23:54 1019 30.09 848 25.04 5.9 42.7 89 4.2 39.6 0 0
23:55 1019 30.09 849 25.07 5.9 42.6 89 4.3 39.7 0 0
23:56 1019 30.09 849 25.07 5.9 42.6 89 4.3 39.7 0 0
23:57 1019 30.09 849 25.07 5.9 42.6 89 4.2 39.6 0 0
23:58 1019 30.09 848 25.04 5.8 42.5 89 4.1 39.5 0 0
23:59 1019 30.09 849 25.07 5.9 42.6 89 4.1 39.4 0 0
24:00 1019 30.09 849 25.07 5.9 42.6 89 4.2 39.5 0 0